ANA2037 RJFF-BIKF
Flight info
| Callsign | ANA2037 |
|---|---|
| Flight time | N/A |
| Altitude | 29000 |
| Route | SABAR Y81 MOE A590 PUTER/N0504F300 A590 PUGAL/N0491F310 A590 POWAL DCT OPAKE DCT MARCC/N0495F330 DCT JUJXI DCT LUR DCT 72N164W 76N160W 78N157W DCT PEASY DCT 85N120W 85N100W/N0491F350 85N080W 84N060W/M084F350 82N044W/M084F340 79N033W 76N027W DCT MV/M084F360 DCT CP DCT GJ DCT DEVUD DEVUD3K |
| Aircraft | B77W/H-SDE1E2E3FGHIJ2J3J4J5M1RWXY/LB1D1 |
Departure
| Time | 2026-04-30 00:02 |
|---|---|
| Airport | Fukuoka Airport (RJFF) |
Arrival
| Time | N/A |
|---|---|
| Airport | Keflavik International Airport (BIKF) |
| Time | Latitude | Longitude | Altitude | Speed | Heading |
|---|---|---|---|---|---|
| 2026-04-29 22:16 | 33.58539 | 130.45425 | 66 ft | 0 kts | 20° |
| 2026-04-29 23:40 | 33.58530 | 130.45421 | 66 ft | 3 kts | 24° |
| 2026-04-29 23:41 | 33.58510 | 130.45408 | 57 ft | 3 kts | 43° |
| 2026-04-29 23:41 | 33.58498 | 130.45390 | 36 ft | 3 kts | 72° |
| 2026-04-29 23:41 | 33.58495 | 130.45372 | 36 ft | 3 kts | 112° |
| 2026-04-29 23:41 | 33.58502 | 130.45359 | 63 ft | 2 kts | 150° |
| 2026-04-29 23:42 | 33.58504 | 130.45358 | 63 ft | 1 kts | 151° |
| 2026-04-29 23:53 | 33.58500 | 130.45360 | 37 ft | 2 kts | 151° |
| 2026-04-29 23:53 | 33.58473 | 130.45378 | 39 ft | 6 kts | 151° |
| 2026-04-29 23:53 | 33.58429 | 130.45407 | 39 ft | 8 kts | 151° |
| 2026-04-29 23:54 | 33.58377 | 130.45442 | 39 ft | 9 kts | 151° |
| 2026-04-29 23:54 | 33.58316 | 130.45485 | 39 ft | 11 kts | 148° |
| 2026-04-29 23:54 | 33.58246 | 130.45534 | 40 ft | 12 kts | 150° |
| 2026-04-29 23:54 | 33.58167 | 130.45587 | 41 ft | 14 kts | 150° |
| 2026-04-29 23:55 | 33.58080 | 130.45647 | 41 ft | 15 kts | 150° |
| 2026-04-29 23:55 | 33.57983 | 130.45713 | 42 ft | 17 kts | 150° |
| 2026-04-29 23:55 | 33.57879 | 130.45785 | 43 ft | 18 kts | 149° |
| 2026-04-29 23:55 | 33.57766 | 130.45864 | 44 ft | 19 kts | 149° |
| 2026-04-29 23:56 | 33.57651 | 130.45942 | 45 ft | 15 kts | 153° |
| 2026-04-29 23:56 | 33.57581 | 130.45939 | 46 ft | 11 kts | 214° |
| 2026-04-29 23:56 | 33.57562 | 130.45918 | 46 ft | 0 kts | 229° |
| 2026-04-29 23:59 | 33.57560 | 130.45915 | 46 ft | 2 kts | 230° |
| 2026-04-29 23:59 | 33.57548 | 130.45894 | 46 ft | 7 kts | 235° |
| 2026-04-29 23:59 | 33.57528 | 130.45822 | 47 ft | 11 kts | 279° |
| 2026-04-30 00:00 | 33.57579 | 130.45759 | 47 ft | 10 kts | 329° |
| 2026-04-30 00:00 | 33.57586 | 130.45754 | 46 ft | 0 kts | 329° |
| 2026-04-30 00:00 | 33.57587 | 130.45754 | 46 ft | 1 kts | 329° |
| 2026-04-30 00:01 | 33.57665 | 130.45701 | 46 ft | 31 kts | 330° |
| 2026-04-30 00:01 | 33.58093 | 130.45409 | 42 ft | 110 kts | 330° |
| 2026-04-30 00:01 | 33.58973 | 130.44810 | 33 ft | 183 kts | 330° |
| 2026-04-30 00:01 | 33.60221 | 130.43952 | 332 ft | 214 kts | 326° |
| 2026-04-30 00:02 | 33.61466 | 130.42968 | 1212 ft | 219 kts | 330° |
| 2026-04-30 00:02 | 33.62823 | 130.42057 | 2027 ft | 228 kts | 332° |
| 2026-04-30 00:02 | 33.64290 | 130.41293 | 2282 ft | 232 kts | 352° |
| 2026-04-30 00:02 | 33.65884 | 130.41484 | 2503 ft | 233 kts | 26° |
| 2026-04-30 00:03 | 33.67139 | 130.42706 | 2723 ft | 237 kts | 58° |
| 2026-04-30 00:03 | 33.67994 | 130.44436 | 3069 ft | 246 kts | 62° |
| 2026-04-30 00:03 | 33.68842 | 130.46248 | 3484 ft | 251 kts | 66° |
| 2026-04-30 00:03 | 33.69200 | 130.48258 | 3725 ft | 255 kts | 98° |
| 2026-04-30 00:04 | 33.68608 | 130.50244 | 4016 ft | 258 kts | 130° |
| 2026-04-30 00:04 | 33.67223 | 130.51610 | 4396 ft | 260 kts | 152° |
| 2026-04-30 00:04 | 33.65628 | 130.52687 | 4899 ft | 265 kts | 151° |
| 2026-04-30 00:04 | 33.64009 | 130.53783 | 5421 ft | 268 kts | 153° |
| 2026-04-30 00:05 | 33.62290 | 130.54743 | 5853 ft | 276 kts | 159° |
| 2026-04-30 00:05 | 33.60489 | 130.55625 | 6376 ft | 281 kts | 159° |
| 2026-04-30 00:05 | 33.58672 | 130.56503 | 6953 ft | 283 kts | 160° |
| 2026-04-30 00:05 | 33.56837 | 130.57400 | 7522 ft | 285 kts | 159° |
| 2026-04-30 00:06 | 33.54992 | 130.58311 | 8097 ft | 288 kts | 160° |
| 2026-04-30 00:06 | 33.53150 | 130.59224 | 8692 ft | 290 kts | 160° |
| 2026-04-30 00:06 | 33.51275 | 130.60160 | 9238 ft | 294 kts | 160° |
| 2026-04-30 00:06 | 33.49380 | 130.61109 | 9824 ft | 295 kts | 160° |
| 2026-04-30 00:07 | 33.47471 | 130.62067 | 10260 ft | 302 kts | 160° |
| 2026-04-30 00:07 | 33.45469 | 130.63044 | 10368 ft | 316 kts | 166° |
| 2026-04-30 00:07 | 33.43289 | 130.63323 | 10443 ft | 321 kts | 192° |
| 2026-04-30 00:07 | 33.41161 | 130.62551 | 10576 ft | 329 kts | 201° |
| 2026-04-30 00:08 | 33.38853 | 130.62113 | 10656 ft | 350 kts | 176° |
| 2026-04-30 00:08 | 33.36488 | 130.63073 | 10892 ft | 373 kts | 149° |
| 2026-04-30 00:08 | 33.34612 | 130.65302 | 11265 ft | 391 kts | 124° |
| 2026-04-30 00:08 | 33.33628 | 130.68360 | 11720 ft | 405 kts | 99° |
| 2026-04-30 00:09 | 33.33435 | 130.71723 | 12129 ft | 408 kts | 95° |
| 2026-04-30 00:09 | 33.33244 | 130.75155 | 12531 ft | 415 kts | 96° |
| 2026-04-30 00:09 | 33.32986 | 130.78573 | 13109 ft | 418 kts | 97° |
| 2026-04-30 00:09 | 33.32673 | 130.82045 | 13670 ft | 422 kts | 98° |
| 2026-04-30 00:10 | 33.32322 | 130.85557 | 14136 ft | 427 kts | 99° |
| 2026-04-30 00:10 | 33.31945 | 130.89104 | 14630 ft | 431 kts | 99° |
| 2026-04-30 00:10 | 33.31555 | 130.92666 | 15105 ft | 435 kts | 100° |
| 2026-04-30 00:10 | 33.31151 | 130.96286 | 15555 ft | 440 kts | 100° |
| 2026-04-30 00:11 | 33.30744 | 130.99913 | 15997 ft | 444 kts | 100° |
| 2026-04-30 00:11 | 33.30331 | 131.03600 | 16508 ft | 447 kts | 100° |
| 2026-04-30 00:11 | 33.29922 | 131.07245 | 17005 ft | 450 kts | 101° |
| 2026-04-30 00:11 | 33.29503 | 131.10971 | 17385 ft | 455 kts | 101° |
| 2026-04-30 00:12 | 33.29076 | 131.14754 | 17827 ft | 459 kts | 101° |
| 2026-04-30 00:12 | 33.28647 | 131.18548 | 18323 ft | 462 kts | 101° |
| 2026-04-30 00:12 | 33.28215 | 131.22368 | 18695 ft | 465 kts | 101° |
| 2026-04-30 00:12 | 33.27780 | 131.26205 | 19118 ft | 467 kts | 101° |
| 2026-04-30 00:13 | 33.27347 | 131.30028 | 19531 ft | 469 kts | 101° |
| 2026-04-30 00:13 | 33.26905 | 131.33905 | 19913 ft | 472 kts | 101° |
| 2026-04-30 00:13 | 33.26459 | 131.37797 | 20284 ft | 475 kts | 102° |
| 2026-04-30 00:13 | 33.26006 | 131.41733 | 20673 ft | 478 kts | 102° |
| 2026-04-30 00:14 | 33.25552 | 131.45675 | 21059 ft | 481 kts | 102° |
| 2026-04-30 00:14 | 33.25095 | 131.49654 | 21406 ft | 484 kts | 102° |
| 2026-04-30 00:14 | 33.24632 | 131.53664 | 21753 ft | 487 kts | 102° |
| 2026-04-30 00:14 | 33.24171 | 131.57632 | 22090 ft | 491 kts | 102° |
| 2026-04-30 00:15 | 33.23698 | 131.61689 | 22408 ft | 494 kts | 102° |
| 2026-04-30 00:15 | 33.23219 | 131.65781 | 22744 ft | 497 kts | 102° |
| 2026-04-30 00:15 | 33.22739 | 131.69883 | 23076 ft | 499 kts | 102° |
| 2026-04-30 00:15 | 33.22255 | 131.74002 | 23416 ft | 502 kts | 102° |
| 2026-04-30 00:16 | 33.21766 | 131.78158 | 23711 ft | 505 kts | 102° |
| 2026-04-30 00:16 | 33.21280 | 131.82272 | 23973 ft | 508 kts | 102° |
| 2026-04-30 00:16 | 33.20784 | 131.86454 | 24313 ft | 508 kts | 102° |
| 2026-04-30 00:16 | 33.20288 | 131.90637 | 24582 ft | 510 kts | 102° |
| 2026-04-30 00:17 | 33.19786 | 131.94844 | 24796 ft | 514 kts | 102° |
| 2026-04-30 00:17 | 33.19276 | 131.99093 | 25028 ft | 517 kts | 102° |
| 2026-04-30 00:17 | 33.18765 | 132.03353 | 25288 ft | 519 kts | 102° |
| 2026-04-30 00:17 | 33.18278 | 132.07622 | 25504 ft | 523 kts | 99° |
| 2026-04-30 00:18 | 33.18063 | 132.12017 | 25525 ft | 535 kts | 94° |
| 2026-04-30 00:18 | 33.18128 | 132.16490 | 25586 ft | 543 kts | 90° |
| 2026-04-30 00:18 | 33.18481 | 132.21008 | 25634 ft | 552 kts | 84° |
| 2026-04-30 00:18 | 33.19069 | 132.25556 | 25687 ft | 557 kts | 83° |
| 2026-04-30 00:19 | 33.19676 | 132.30100 | 25768 ft | 561 kts | 83° |
| 2026-04-30 00:19 | 33.20283 | 132.34722 | 25925 ft | 563 kts | 83° |
| 2026-04-30 00:19 | 33.20872 | 132.39350 | 26122 ft | 564 kts | 83° |
| 2026-04-30 00:19 | 33.21445 | 132.43998 | 26319 ft | 565 kts | 84° |
| 2026-04-30 00:20 | 33.22009 | 132.48642 | 26474 ft | 567 kts | 84° |
| 2026-04-30 00:20 | 33.22571 | 132.53311 | 26612 ft | 569 kts | 84° |
| 2026-04-30 00:20 | 33.23138 | 132.57998 | 26750 ft | 571 kts | 84° |
| 2026-04-30 00:20 | 33.23709 | 132.62696 | 26907 ft | 572 kts | 83° |
| 2026-04-30 00:21 | 33.24291 | 132.67397 | 27162 ft | 571 kts | 83° |
| 2026-04-30 00:21 | 33.24876 | 132.72109 | 27255 ft | 574 kts | 83° |
| 2026-04-30 00:21 | 33.25453 | 132.76778 | 27347 ft | 577 kts | 83° |
| 2026-04-30 00:21 | 33.26037 | 132.81534 | 27463 ft | 578 kts | 83° |
| 2026-04-30 00:22 | 33.26618 | 132.86299 | 27595 ft | 580 kts | 83° |
| 2026-04-30 00:22 | 33.27198 | 132.91081 | 27737 ft | 581 kts | 83° |
| 2026-04-30 00:22 | 33.27774 | 132.95857 | 27885 ft | 581 kts | 83° |
| 2026-04-30 00:22 | 33.28349 | 133.00647 | 28062 ft | 582 kts | 83° |
| 2026-04-30 00:23 | 33.28924 | 133.05427 | 28195 ft | 583 kts | 83° |
| 2026-04-30 00:23 | 33.29504 | 133.10232 | 28348 ft | 583 kts | 83° |
| 2026-04-30 00:23 | 33.30074 | 133.15045 | 28412 ft | 586 kts | 83° |
| 2026-04-30 00:24 | 33.31198 | 133.24693 | 28599 ft | 587 kts | 83° |
| 2026-04-30 00:24 | 33.31759 | 133.29551 | 28706 ft | 588 kts | 84° |
| 2026-04-30 00:24 | 33.32319 | 133.34403 | 28783 ft | 589 kts | 84° |
| 2026-04-30 00:25 | 33.33431 | 133.44076 | 28946 ft | 591 kts | 84° |
| 2026-04-30 00:25 | 33.34545 | 133.53825 | 29088 ft | 590 kts | 84° |
| 2026-04-30 00:26 | 33.35636 | 133.63416 | 29096 ft | 577 kts | 84° |
| 2026-04-30 00:26 | 33.36706 | 133.72912 | 29104 ft | 575 kts | 84° |
| 2026-04-30 00:27 | 33.37768 | 133.82431 | 29119 ft | 579 kts | 84° |
| 2026-04-30 00:27 | 33.38831 | 133.92019 | 29128 ft | 583 kts | 84° |
| 2026-04-30 00:28 | 33.39886 | 134.01596 | 29132 ft | 585 kts | 84° |
| 2026-04-30 00:28 | 33.40948 | 134.11299 | 29133 ft | 589 kts | 84° |
| 2026-04-30 00:29 | 33.42007 | 134.21018 | 29118 ft | 588 kts | 84° |
| 2026-04-30 00:29 | 33.43049 | 134.30719 | 29132 ft | 588 kts | 84° |
| 2026-04-30 00:30 | 33.44087 | 134.40449 | 29150 ft | 588 kts | 84° |
| 2026-04-30 00:30 | 33.45112 | 134.50114 | 29148 ft | 588 kts | 84° |
| 2026-04-30 00:31 | 33.46138 | 134.59840 | 29151 ft | 588 kts | 84° |
| 2026-04-30 00:31 | 33.47157 | 134.69584 | 29149 ft | 589 kts | 84° |
| 2026-04-30 00:32 | 33.48163 | 134.79327 | 29152 ft | 589 kts | 84° |
| 2026-04-30 00:32 | 33.49158 | 134.89063 | 29154 ft | 588 kts | 84° |
| 2026-04-30 00:33 | 33.50140 | 134.98718 | 29152 ft | 586 kts | 84° |
| 2026-04-30 00:33 | 33.51136 | 135.08416 | 29141 ft | 587 kts | 84° |
| 2026-04-30 00:34 | 33.52133 | 135.18165 | 29139 ft | 587 kts | 84° |
| 2026-04-30 00:34 | 33.53114 | 135.27884 | 29138 ft | 588 kts | 84° |
| 2026-04-30 00:35 | 33.54083 | 135.37594 | 29131 ft | 587 kts | 84° |
| 2026-04-30 00:35 | 33.55039 | 135.47260 | 29137 ft | 587 kts | 84° |
| 2026-04-30 00:36 | 33.55996 | 135.56991 | 29147 ft | 586 kts | 84° |
| 2026-04-30 00:36 | 33.56944 | 135.66731 | 29164 ft | 587 kts | 84° |
| 2026-04-30 00:37 | 33.57880 | 135.76409 | 29174 ft | 587 kts | 84° |
| 2026-04-30 00:37 | 33.58812 | 135.86153 | 29180 ft | 588 kts | 84° |
| 2026-04-30 00:38 | 33.59737 | 135.95893 | 29183 ft | 587 kts | 84° |
| 2026-04-30 00:38 | 33.60658 | 136.05658 | 29189 ft | 588 kts | 84° |
| 2026-04-30 00:39 | 33.61564 | 136.15359 | 29188 ft | 588 kts | 84° |
| 2026-04-30 00:39 | 33.62469 | 136.25132 | 29193 ft | 588 kts | 84° |
| 2026-04-30 00:40 | 33.63363 | 136.34880 | 29186 ft | 588 kts | 84° |
| 2026-04-30 00:40 | 33.64245 | 136.44574 | 29185 ft | 587 kts | 84° |
| 2026-04-30 00:41 | 33.65124 | 136.54319 | 29185 ft | 587 kts | 84° |
| 2026-04-30 00:41 | 33.65993 | 136.64047 | 29178 ft | 586 kts | 84° |
| 2026-04-30 00:42 | 33.66644 | 136.71398 | 29191 ft | 585 kts | 84° |
| 2026-04-30 00:42 | 33.67377 | 136.79894 | 29190 ft | 586 kts | 85° |
| 2026-04-30 00:43 | 33.68220 | 136.89619 | 29176 ft | 585 kts | 84° |
| 2026-04-30 00:43 | 33.69066 | 136.99323 | 29177 ft | 585 kts | 84° |
| 2026-04-30 00:44 | 33.69902 | 137.09054 | 29175 ft | 585 kts | 84° |
| 2026-04-30 00:44 | 33.70422 | 137.18766 | 29179 ft | 586 kts | 89° |
| 2026-04-30 00:45 | 33.70678 | 137.28565 | 29174 ft | 586 kts | 89° |
| 2026-04-30 00:45 | 33.70920 | 137.38358 | 29177 ft | 587 kts | 89° |
| 2026-04-30 00:46 | 33.71193 | 137.48169 | 29175 ft | 587 kts | 89° |
| 2026-04-30 00:46 | 33.71473 | 137.57914 | 29169 ft | 587 kts | 89° |
| 2026-04-30 00:47 | 33.71746 | 137.67742 | 29172 ft | 587 kts | 89° |
| 2026-04-30 00:47 | 33.72007 | 137.77556 | 29176 ft | 587 kts | 89° |
| 2026-04-30 00:48 | 33.72260 | 137.87381 | 29179 ft | 588 kts | 89° |
| 2026-04-30 00:48 | 33.72464 | 137.95547 | 29171 ft | 588 kts | 89° |
| 2026-04-30 00:49 | 33.72741 | 138.06966 | 29176 ft | 589 kts | 89° |
| 2026-04-30 00:49 | 33.72934 | 138.15207 | 29171 ft | 588 kts | 89° |
| 2026-04-30 00:50 | 33.73129 | 138.23743 | 29174 ft | 589 kts | 89° |
| 2026-04-30 00:50 | 33.73303 | 138.31619 | 29174 ft | 589 kts | 89° |
| 2026-04-30 00:51 | 33.73514 | 138.41489 | 29174 ft | 590 kts | 89° |
| 2026-04-30 00:51 | 33.73654 | 138.48224 | 29177 ft | 589 kts | 89° |
| 2026-04-30 00:52 | 33.73846 | 138.58066 | 29173 ft | 587 kts | 89° |
| 2026-04-30 00:52 | 33.74020 | 138.67890 | 29179 ft | 588 kts | 89° |
| 2026-04-30 00:53 | 33.74190 | 138.77742 | 29181 ft | 588 kts | 89° |
| 2026-04-30 00:53 | 33.74857 | 138.87509 | 29176 ft | 588 kts | 77° |
| 2026-04-30 00:54 | 33.77412 | 138.96749 | 29182 ft | 583 kts | 63° |
| 2026-04-30 00:54 | 33.81511 | 139.05126 | 29196 ft | 581 kts | 54° |
| 2026-04-30 00:55 | 33.85807 | 139.13373 | 29187 ft | 581 kts | 55° |
| 2026-04-30 00:55 | 33.92097 | 139.25873 | 29183 ft | 581 kts | 56° |
| 2026-04-30 00:56 | 33.96225 | 139.34186 | 29201 ft | 583 kts | 56° |
| 2026-04-30 00:56 | 34.00396 | 139.42579 | 29205 ft | 583 kts | 56° |
| 2026-04-30 00:57 | 34.04564 | 139.50973 | 29207 ft | 583 kts | 56° |
| 2026-04-30 00:57 | 34.08860 | 139.59194 | 29212 ft | 580 kts | 51° |
| 2026-04-30 00:58 | 34.13628 | 139.67034 | 29203 ft | 579 kts | 50° |
| 2026-04-30 00:58 | 34.18439 | 139.74837 | 29207 ft | 578 kts | 50° |
| 2026-04-30 00:59 | 34.23219 | 139.82691 | 29209 ft | 580 kts | 50° |
| 2026-04-30 00:59 | 34.27969 | 139.90579 | 29213 ft | 581 kts | 50° |
| 2026-04-30 01:00 | 34.32692 | 139.98449 | 29212 ft | 580 kts | 50° |
| 2026-04-30 01:00 | 34.37441 | 140.06371 | 29221 ft | 582 kts | 50° |
| 2026-04-30 01:01 | 34.42197 | 140.14315 | 29218 ft | 582 kts | 50° |
| 2026-04-30 01:01 | 34.46953 | 140.22276 | 29219 ft | 583 kts | 50° |
| 2026-04-30 01:02 | 34.51714 | 140.30264 | 29230 ft | 585 kts | 50° |
| 2026-04-30 01:02 | 34.56445 | 140.38222 | 29230 ft | 584 kts | 50° |
| 2026-04-30 01:03 | 34.61192 | 140.46224 | 29232 ft | 584 kts | 50° |
| 2026-04-30 01:03 | 34.65943 | 140.54250 | 29220 ft | 586 kts | 50° |
| 2026-04-30 01:04 | 34.70714 | 140.62327 | 29235 ft | 588 kts | 50° |
| 2026-04-30 01:04 | 34.75445 | 140.70357 | 29229 ft | 588 kts | 50° |
| 2026-04-30 01:05 | 34.80220 | 140.78480 | 29228 ft | 589 kts | 50° |
| 2026-04-30 01:05 | 34.84977 | 140.86592 | 29232 ft | 589 kts | 50° |
| 2026-04-30 01:06 | 34.89738 | 140.94725 | 29235 ft | 589 kts | 50° |
| 2026-04-30 01:06 | 34.94463 | 141.02817 | 29237 ft | 590 kts | 50° |
| 2026-04-30 01:07 | 34.99219 | 141.10983 | 29235 ft | 591 kts | 51° |
| 2026-04-30 01:07 | 35.03976 | 141.19174 | 29235 ft | 591 kts | 51° |
| 2026-04-30 01:08 | 35.08740 | 141.27394 | 29226 ft | 591 kts | 51° |
| 2026-04-30 01:08 | 35.13461 | 141.35560 | 29240 ft | 591 kts | 51° |
| 2026-04-30 01:09 | 35.18209 | 141.43789 | 29248 ft | 591 kts | 51° |
| 2026-04-30 01:09 | 35.22941 | 141.52012 | 29235 ft | 591 kts | 51° |
| 2026-04-30 01:10 | 35.27672 | 141.60253 | 29243 ft | 590 kts | 51° |
| 2026-04-30 01:10 | 35.32378 | 141.68468 | 29261 ft | 590 kts | 51° |
| 2026-04-30 01:11 | 35.37063 | 141.76664 | 29254 ft | 591 kts | 51° |
| 2026-04-30 01:11 | 35.41779 | 141.84936 | 29248 ft | 592 kts | 51° |
| 2026-04-30 01:12 | 35.46491 | 141.93221 | 29248 ft | 592 kts | 51° |
| 2026-04-30 01:12 | 35.51204 | 142.01528 | 29250 ft | 592 kts | 51° |
| 2026-04-30 01:13 | 35.55900 | 142.09822 | 29251 ft | 592 kts | 51° |
| 2026-04-30 01:13 | 35.60563 | 142.18081 | 29252 ft | 592 kts | 51° |
| 2026-04-30 01:14 | 35.65256 | 142.26410 | 29253 ft | 591 kts | 51° |
| 2026-04-30 01:14 | 35.69943 | 142.34750 | 29253 ft | 592 kts | 50° |
| 2026-04-30 01:15 | 35.74588 | 142.43036 | 29246 ft | 592 kts | 50° |
| 2026-04-30 01:15 | 35.79164 | 142.51524 | 29237 ft | 598 kts | 57° |
| 2026-04-30 01:16 | 35.82582 | 142.60931 | 29254 ft | 605 kts | 68° |
| 2026-04-30 01:16 | 35.84643 | 142.71051 | 29259 ft | 610 kts | 78° |
| 2026-04-30 01:17 | 35.86213 | 142.81321 | 29256 ft | 611 kts | 78° |
| 2026-04-30 01:17 | 35.87863 | 142.91607 | 29250 ft | 610 kts | 77° |
| 2026-04-30 01:18 | 35.89563 | 143.01804 | 29257 ft | 611 kts | 77° |
| 2026-04-30 01:18 | 35.91259 | 143.12083 | 29258 ft | 611 kts | 76° |
| 2026-04-30 01:19 | 35.92416 | 143.17114 | 29247 ft | 606 kts | 64° |
| 2026-04-30 01:19 | 35.94319 | 143.21715 | 29266 ft | 598 kts | 52° |
| 2026-04-30 01:19 | 35.99675 | 143.29338 | 29255 ft | 577 kts | 30° |
| 2026-04-30 01:20 | 36.06151 | 143.35046 | 29264 ft | 572 kts | 27° |
| 2026-04-30 01:20 | 36.12633 | 143.40826 | 29271 ft | 576 kts | 28° |
| 2026-04-30 01:21 | 36.19044 | 143.46712 | 29266 ft | 577 kts | 28° |
| 2026-04-30 01:21 | 36.25478 | 143.52684 | 29266 ft | 577 kts | 28° |
| 2026-04-30 01:22 | 36.31909 | 143.58656 | 29264 ft | 576 kts | 28° |
| 2026-04-30 01:22 | 36.38331 | 143.64616 | 29267 ft | 575 kts | 28° |
| 2026-04-30 01:23 | 36.44697 | 143.70532 | 29266 ft | 574 kts | 28° |
| 2026-04-30 01:23 | 36.51100 | 143.76494 | 29264 ft | 574 kts | 28° |
| 2026-04-30 01:24 | 36.57496 | 143.82464 | 29274 ft | 575 kts | 28° |
| 2026-04-30 01:24 | 36.63894 | 143.88450 | 29278 ft | 575 kts | 28° |
| 2026-04-30 01:25 | 36.70249 | 143.94409 | 29273 ft | 575 kts | 28° |
| 2026-04-30 01:25 | 36.76654 | 144.00428 | 29271 ft | 575 kts | 28° |
| 2026-04-30 01:26 | 36.83019 | 144.06422 | 29277 ft | 575 kts | 28° |
| 2026-04-30 01:26 | 36.89401 | 144.12444 | 29275 ft | 575 kts | 28° |
| 2026-04-30 01:27 | 36.95779 | 144.18477 | 29277 ft | 575 kts | 28° |
| 2026-04-30 01:27 | 37.02168 | 144.24533 | 29273 ft | 575 kts | 28° |
| 2026-04-30 01:28 | 37.08541 | 144.30587 | 29277 ft | 575 kts | 29° |
| 2026-04-30 01:28 | 37.14867 | 144.36617 | 29281 ft | 574 kts | 29° |
| 2026-04-30 01:29 | 37.21221 | 144.42689 | 29278 ft | 574 kts | 29° |
| 2026-04-30 01:29 | 37.27570 | 144.48768 | 29284 ft | 574 kts | 28° |
| 2026-04-30 01:30 | 37.33921 | 144.54861 | 29282 ft | 573 kts | 28° |
| 2026-04-30 01:30 | 37.40256 | 144.60952 | 29287 ft | 572 kts | 28° |
| 2026-04-30 01:31 | 37.46575 | 144.67042 | 29287 ft | 572 kts | 28° |
| 2026-04-30 01:31 | 37.52856 | 144.73108 | 29287 ft | 571 kts | 28° |
| 2026-04-30 01:32 | 37.59161 | 144.79210 | 29287 ft | 571 kts | 28° |
| 2026-04-30 01:32 | 37.65450 | 144.85311 | 29293 ft | 570 kts | 28° |
| 2026-04-30 01:33 | 37.71728 | 144.91415 | 29293 ft | 569 kts | 28° |
| 2026-04-30 01:33 | 37.78006 | 144.97532 | 29296 ft | 568 kts | 28° |
| 2026-04-30 01:34 | 37.84262 | 145.03640 | 29292 ft | 567 kts | 28° |
| 2026-04-30 01:34 | 37.90470 | 145.09715 | 29286 ft | 567 kts | 28° |
| 2026-04-30 01:35 | 37.96708 | 145.15832 | 29286 ft | 566 kts | 28° |
| 2026-04-30 01:35 | 38.02942 | 145.21959 | 29285 ft | 566 kts | 28° |
| 2026-04-30 01:36 | 38.09174 | 145.28098 | 29291 ft | 567 kts | 28° |
| 2026-04-30 01:36 | 38.15405 | 145.34250 | 29288 ft | 568 kts | 28° |
| 2026-04-30 01:37 | 38.21615 | 145.40395 | 29293 ft | 568 kts | 28° |
| 2026-04-30 01:37 | 38.27860 | 145.46590 | 29294 ft | 569 kts | 28° |
| 2026-04-30 01:38 | 38.34080 | 145.52857 | 29290 ft | 574 kts | 31° |
| 2026-04-30 01:38 | 38.39041 | 145.58569 | 29290 ft | 578 kts | 33° |
| 2026-04-30 01:39 | 38.45877 | 145.66741 | 29292 ft | 579 kts | 34° |
| 2026-04-30 01:39 | 38.50812 | 145.72639 | 29292 ft | 579 kts | 33° |
| 2026-04-30 01:40 | 38.56682 | 145.79608 | 29289 ft | 579 kts | 33° |
| 2026-04-30 01:40 | 38.62597 | 145.86618 | 29286 ft | 579 kts | 33° |
| 2026-04-30 01:41 | 38.68496 | 145.93624 | 29288 ft | 578 kts | 32° |
| 2026-04-30 01:41 | 38.74359 | 146.00611 | 29290 ft | 577 kts | 32° |
| 2026-04-30 01:42 | 38.80237 | 146.07636 | 29292 ft | 576 kts | 32° |
| 2026-04-30 01:42 | 38.86094 | 146.14654 | 29285 ft | 576 kts | 32° |
| 2026-04-30 01:43 | 38.91940 | 146.21670 | 29282 ft | 575 kts | 32° |
| 2026-04-30 01:43 | 38.97749 | 146.28658 | 29280 ft | 575 kts | 32° |
| 2026-04-30 01:44 | 39.03577 | 146.35686 | 29280 ft | 575 kts | 32° |
| 2026-04-30 01:44 | 39.09417 | 146.42746 | 29282 ft | 575 kts | 32° |
| 2026-04-30 01:45 | 39.15248 | 146.49812 | 29278 ft | 576 kts | 32° |
| 2026-04-30 01:45 | 39.21098 | 146.56919 | 29271 ft | 577 kts | 32° |
| 2026-04-30 01:46 | 39.26938 | 146.64031 | 29276 ft | 577 kts | 32° |
| 2026-04-30 01:46 | 39.32747 | 146.71122 | 29277 ft | 578 kts | 32° |
| 2026-04-30 01:47 | 39.38586 | 146.78269 | 29272 ft | 578 kts | 32° |
| 2026-04-30 01:47 | 39.44426 | 146.85433 | 29269 ft | 578 kts | 31° |
| 2026-04-30 01:48 | 39.50260 | 146.92607 | 29261 ft | 577 kts | 31° |
| 2026-04-30 01:48 | 39.56050 | 146.99744 | 29258 ft | 577 kts | 31° |
| 2026-04-30 01:49 | 39.61866 | 147.06930 | 29261 ft | 576 kts | 31° |
| 2026-04-30 01:49 | 39.67670 | 147.14118 | 29260 ft | 576 kts | 31° |
| 2026-04-30 01:50 | 39.73427 | 147.21266 | 29261 ft | 576 kts | 31° |
| 2026-04-30 01:50 | 39.79209 | 147.28463 | 29265 ft | 575 kts | 30° |
| 2026-04-30 01:51 | 39.85000 | 147.35687 | 29260 ft | 575 kts | 30° |
| 2026-04-30 01:51 | 39.90746 | 147.42876 | 29257 ft | 574 kts | 30° |
| 2026-04-30 01:52 | 39.96506 | 147.50101 | 29261 ft | 573 kts | 30° |
| 2026-04-30 01:52 | 40.02247 | 147.57317 | 29258 ft | 572 kts | 30° |
| 2026-04-30 01:53 | 40.07967 | 147.64525 | 29250 ft | 570 kts | 30° |
| 2026-04-30 01:53 | 40.13636 | 147.71685 | 29248 ft | 569 kts | 30° |
| 2026-04-30 01:54 | 40.19316 | 147.78878 | 29248 ft | 567 kts | 30° |
| 2026-04-30 01:54 | 40.24977 | 147.86064 | 29249 ft | 566 kts | 30° |
| 2026-04-30 01:55 | 40.30586 | 147.93200 | 29239 ft | 565 kts | 30° |
| 2026-04-30 01:55 | 40.36217 | 148.00382 | 29246 ft | 564 kts | 31° |
| 2026-04-30 01:56 | 40.41839 | 148.07571 | 29247 ft | 562 kts | 31° |
| 2026-04-30 01:56 | 40.47436 | 148.14746 | 29246 ft | 561 kts | 31° |
| 2026-04-30 01:57 | 40.53009 | 148.21908 | 29243 ft | 560 kts | 31° |
| 2026-04-30 01:57 | 40.58545 | 148.29039 | 29242 ft | 558 kts | 32° |
| 2026-04-30 01:58 | 40.64085 | 148.36194 | 29241 ft | 557 kts | 32° |
| 2026-04-30 01:58 | 40.69609 | 148.43344 | 29226 ft | 556 kts | 32° |
| 2026-04-30 01:59 | 40.77849 | 148.54043 | 29238 ft | 555 kts | 33° |
| 2026-04-30 02:00 | 40.83354 | 148.61213 | 29237 ft | 555 kts | 33° |
| 2026-04-30 02:00 | 40.88840 | 148.68378 | 29229 ft | 553 kts | 33° |
| 2026-04-30 02:01 | 40.94310 | 148.75541 | 29230 ft | 552 kts | 34° |
| 2026-04-30 02:01 | 40.99730 | 148.82652 | 29229 ft | 551 kts | 34° |
| 2026-04-30 02:02 | 41.05167 | 148.89805 | 29232 ft | 549 kts | 34° |
| 2026-04-30 02:02 | 41.10585 | 148.96949 | 29225 ft | 548 kts | 34° |
| 2026-04-30 02:03 | 41.15978 | 149.04085 | 29225 ft | 547 kts | 34° |
| 2026-04-30 02:03 | 41.21316 | 149.11169 | 29233 ft | 545 kts | 35° |
| 2026-04-30 02:04 | 41.26677 | 149.18302 | 29225 ft | 544 kts | 35° |
| 2026-04-30 02:04 | 41.32036 | 149.25449 | 29228 ft | 544 kts | 35° |
| 2026-04-30 02:05 | 41.37375 | 149.32587 | 29226 ft | 543 kts | 36° |
| 2026-04-30 02:05 | 41.42663 | 149.39672 | 29215 ft | 543 kts | 36° |
| 2026-04-30 02:06 | 41.47982 | 149.46819 | 29215 ft | 542 kts | 36° |
| 2026-04-30 02:06 | 41.53295 | 149.53973 | 29213 ft | 542 kts | 36° |
| 2026-04-30 02:07 | 41.58604 | 149.61141 | 29215 ft | 543 kts | 36° |
| 2026-04-30 02:07 | 41.63912 | 149.68325 | 29214 ft | 543 kts | 36° |
| 2026-04-30 02:08 | 41.69213 | 149.75519 | 29215 ft | 542 kts | 37° |
| 2026-04-30 02:08 | 41.74508 | 149.82722 | 29213 ft | 542 kts | 37° |
| 2026-04-30 02:09 | 41.79756 | 149.89880 | 29199 ft | 541 kts | 37° |
| 2026-04-30 02:09 | 41.85024 | 149.97082 | 29200 ft | 540 kts | 37° |
| 2026-04-30 02:10 | 41.90283 | 150.04289 | 29194 ft | 539 kts | 37° |
| 2026-04-30 02:10 | 41.95533 | 150.11501 | 29194 ft | 538 kts | 38° |
| 2026-04-30 02:11 | 42.00760 | 150.18703 | 29193 ft | 538 kts | 38° |
| 2026-04-30 02:11 | 42.05979 | 150.25909 | 29191 ft | 537 kts | 38° |
| 2026-04-30 02:12 | 42.11163 | 150.33085 | 29193 ft | 537 kts | 38° |
| 2026-04-30 02:12 | 42.16370 | 150.40311 | 29185 ft | 536 kts | 38° |
| 2026-04-30 02:13 | 42.21565 | 150.47537 | 29247 ft | 538 kts | 38° |
| 2026-04-30 02:13 | 42.24144 | 150.51131 | 29465 ft | 537 kts | 38° |
| 2026-04-30 02:13 | 42.26746 | 150.54762 | 29743 ft | 536 kts | 38° |
| 2026-04-30 02:13 | 42.29336 | 150.58384 | 29979 ft | 536 kts | 38° |
| 2026-04-30 02:14 | 42.31935 | 150.62020 | 30167 ft | 537 kts | 38° |
| 2026-04-30 02:14 | 42.34536 | 150.65663 | 30329 ft | 538 kts | 38° |
| 2026-04-30 02:14 | 42.37135 | 150.69309 | 30514 ft | 538 kts | 38° |
| 2026-04-30 02:14 | 42.39731 | 150.72956 | 30691 ft | 537 kts | 38° |
| 2026-04-30 02:15 | 42.42291 | 150.76556 | 30856 ft | 537 kts | 38° |
| 2026-04-30 02:15 | 42.44889 | 150.80215 | 31034 ft | 537 kts | 39° |
| 2026-04-30 02:15 | 42.47478 | 150.83865 | 31087 ft | 537 kts | 39° |
| 2026-04-30 02:16 | 42.52659 | 150.91184 | 31169 ft | 537 kts | 39° |
| 2026-04-30 02:16 | 42.57796 | 150.98460 | 31167 ft | 535 kts | 39° |
| 2026-04-30 02:17 | 42.62940 | 151.05766 | 31172 ft | 534 kts | 39° |
| 2026-04-30 02:17 | 42.68077 | 151.13077 | 31168 ft | 533 kts | 39° |
| 2026-04-30 02:18 | 42.73197 | 151.20382 | 31153 ft | 533 kts | 39° |
| 2026-04-30 02:18 | 42.78282 | 151.27656 | 31168 ft | 533 kts | 39° |
| 2026-04-30 02:19 | 42.83387 | 151.34978 | 31162 ft | 534 kts | 40° |
| 2026-04-30 02:19 | 42.88505 | 151.42339 | 31165 ft | 534 kts | 40° |
| 2026-04-30 02:20 | 42.93620 | 151.49714 | 31173 ft | 534 kts | 40° |
| 2026-04-30 02:20 | 42.98698 | 151.57054 | 31166 ft | 534 kts | 40° |
| 2026-04-30 02:21 | 43.03798 | 151.64447 | 31163 ft | 534 kts | 40° |
| 2026-04-30 02:21 | 43.08899 | 151.71859 | 31156 ft | 533 kts | 40° |
| 2026-04-30 02:22 | 43.13986 | 151.79269 | 31162 ft | 533 kts | 41° |
| 2026-04-30 02:22 | 43.19062 | 151.86683 | 31150 ft | 533 kts | 41° |
| 2026-04-30 02:23 | 43.24088 | 151.94044 | 31149 ft | 532 kts | 41° |
| 2026-04-30 02:23 | 43.29153 | 152.01480 | 31147 ft | 532 kts | 41° |
| 2026-04-30 02:24 | 43.34207 | 152.08920 | 31153 ft | 532 kts | 41° |
| 2026-04-30 02:24 | 43.39219 | 152.16318 | 31144 ft | 531 kts | 41° |
| 2026-04-30 02:25 | 43.44265 | 152.23784 | 31141 ft | 531 kts | 41° |
| 2026-04-30 02:25 | 43.49298 | 152.31251 | 31140 ft | 531 kts | 41° |
| 2026-04-30 02:26 | 43.54319 | 152.38721 | 31139 ft | 531 kts | 42° |
| 2026-04-30 02:26 | 43.59321 | 152.46181 | 31137 ft | 531 kts | 42° |
| 2026-04-30 02:27 | 43.64332 | 152.53676 | 31133 ft | 531 kts | 42° |
| 2026-04-30 02:27 | 43.68496 | 152.59918 | 31130 ft | 531 kts | 42° |
| 2026-04-30 02:28 | 43.73505 | 152.67445 | 31131 ft | 531 kts | 42° |
| 2026-04-30 02:28 | 43.78474 | 152.74933 | 31123 ft | 531 kts | 43° |
| 2026-04-30 02:29 | 43.83478 | 152.82492 | 31123 ft | 531 kts | 43° |
| 2026-04-30 02:29 | 43.88470 | 152.90053 | 31121 ft | 531 kts | 43° |
| 2026-04-30 02:30 | 43.93419 | 152.97570 | 31116 ft | 531 kts | 43° |
| 2026-04-30 02:30 | 43.98405 | 153.05163 | 31116 ft | 530 kts | 43° |
| 2026-04-30 02:31 | 44.03372 | 153.12748 | 31117 ft | 530 kts | 43° |
| 2026-04-30 02:31 | 44.08297 | 153.20289 | 31107 ft | 530 kts | 43° |
| 2026-04-30 02:32 | 44.13255 | 153.27900 | 31100 ft | 530 kts | 43° |
| 2026-04-30 02:32 | 44.18205 | 153.35520 | 31100 ft | 530 kts | 44° |
| 2026-04-30 02:33 | 44.23145 | 153.43146 | 31101 ft | 530 kts | 44° |
| 2026-04-30 02:33 | 44.28085 | 153.50790 | 31099 ft | 530 kts | 44° |
| 2026-04-30 02:34 | 44.32991 | 153.58405 | 31099 ft | 530 kts | 44° |
| 2026-04-30 02:34 | 44.37922 | 153.66077 | 31091 ft | 530 kts | 44° |
| 2026-04-30 02:35 | 44.42844 | 153.73758 | 31090 ft | 529 kts | 44° |
| 2026-04-30 02:35 | 44.47755 | 153.81443 | 31083 ft | 529 kts | 44° |
| 2026-04-30 02:36 | 44.52633 | 153.89095 | 31083 ft | 529 kts | 44° |
| 2026-04-30 02:36 | 44.57536 | 153.96809 | 31076 ft | 529 kts | 45° |
| 2026-04-30 02:37 | 44.62433 | 154.04535 | 31075 ft | 529 kts | 45° |
| 2026-04-30 02:37 | 44.67311 | 154.12253 | 31065 ft | 529 kts | 45° |
| 2026-04-30 02:38 | 44.72188 | 154.19988 | 31064 ft | 528 kts | 45° |
| 2026-04-30 02:38 | 44.77067 | 154.27749 | 31058 ft | 528 kts | 45° |
| 2026-04-30 02:39 | 44.81900 | 154.35459 | 31057 ft | 528 kts | 45° |
| 2026-04-30 02:39 | 44.86758 | 154.43235 | 31053 ft | 528 kts | 45° |
| 2026-04-30 02:40 | 44.91561 | 154.51088 | 31053 ft | 528 kts | 46° |
| 2026-04-30 02:40 | 44.96336 | 154.58992 | 31048 ft | 528 kts | 46° |
| 2026-04-30 02:41 | 45.01100 | 154.66887 | 31033 ft | 528 kts | 46° |
| 2026-04-30 02:41 | 45.05860 | 154.74779 | 31043 ft | 527 kts | 46° |
| 2026-04-30 02:42 | 45.10617 | 154.82679 | 31040 ft | 527 kts | 46° |
| 2026-04-30 02:42 | 45.15341 | 154.90548 | 31032 ft | 527 kts | 46° |
| 2026-04-30 02:43 | 45.20090 | 154.98480 | 31026 ft | 527 kts | 46° |
| 2026-04-30 02:43 | 45.24829 | 155.06420 | 31025 ft | 527 kts | 47° |
| 2026-04-30 02:44 | 45.29535 | 155.14327 | 31013 ft | 527 kts | 47° |
| 2026-04-30 02:44 | 45.34262 | 155.22293 | 31020 ft | 526 kts | 47° |
| 2026-04-30 02:45 | 45.38985 | 155.30273 | 31007 ft | 526 kts | 47° |
| 2026-04-30 02:45 | 45.43695 | 155.38254 | 31003 ft | 526 kts | 47° |
| 2026-04-30 02:46 | 45.48382 | 155.46221 | 31002 ft | 526 kts | 47° |
| 2026-04-30 02:46 | 45.53091 | 155.54245 | 30995 ft | 526 kts | 47° |
| 2026-04-30 02:47 | 45.57742 | 155.62195 | 30993 ft | 525 kts | 47° |
| 2026-04-30 02:47 | 45.62417 | 155.70208 | 30987 ft | 525 kts | 47° |
| 2026-04-30 02:48 | 45.67097 | 155.78252 | 30982 ft | 525 kts | 47° |
| 2026-04-30 02:48 | 45.71766 | 155.86301 | 30978 ft | 524 kts | 47° |
| 2026-04-30 02:49 | 45.76398 | 155.94309 | 30971 ft | 524 kts | 47° |
| 2026-04-30 02:49 | 45.81055 | 156.02384 | 30965 ft | 524 kts | 47° |
| 2026-04-30 02:50 | 45.85691 | 156.10446 | 30962 ft | 524 kts | 47° |
| 2026-04-30 02:50 | 45.90324 | 156.18525 | 30962 ft | 524 kts | 47° |
| 2026-04-30 02:51 | 45.94943 | 156.26604 | 30955 ft | 523 kts | 47° |
| 2026-04-30 02:51 | 45.99531 | 156.34651 | 30949 ft | 523 kts | 47° |
| 2026-04-30 02:52 | 46.04142 | 156.42762 | 30944 ft | 523 kts | 47° |
| 2026-04-30 02:52 | 46.08744 | 156.50881 | 30943 ft | 523 kts | 48° |
| 2026-04-30 02:53 | 46.13311 | 156.58961 | 30937 ft | 522 kts | 48° |
| 2026-04-30 02:53 | 46.17891 | 156.67090 | 30930 ft | 522 kts | 48° |
| 2026-04-30 02:54 | 46.22469 | 156.75237 | 30925 ft | 522 kts | 48° |
| 2026-04-30 02:54 | 46.27037 | 156.83392 | 30921 ft | 521 kts | 48° |
| 2026-04-30 02:55 | 46.31573 | 156.91512 | 30912 ft | 521 kts | 48° |
| 2026-04-30 02:55 | 46.36122 | 156.99680 | 30911 ft | 521 kts | 48° |
| 2026-04-30 02:56 | 46.40680 | 157.07886 | 30909 ft | 521 kts | 48° |
| 2026-04-30 02:56 | 46.45189 | 157.16030 | 30907 ft | 520 kts | 48° |
| 2026-04-30 02:57 | 46.49723 | 157.24244 | 30899 ft | 520 kts | 48° |
| 2026-04-30 02:57 | 46.54242 | 157.32456 | 30881 ft | 520 kts | 48° |
| 2026-04-30 02:58 | 46.58723 | 157.40619 | 30887 ft | 520 kts | 48° |
| 2026-04-30 02:58 | 46.63229 | 157.48855 | 30888 ft | 519 kts | 48° |
| 2026-04-30 02:59 | 46.67727 | 157.57100 | 30880 ft | 519 kts | 48° |
| 2026-04-30 02:59 | 46.72207 | 157.65336 | 30879 ft | 519 kts | 48° |
| 2026-04-30 03:00 | 46.76684 | 157.73592 | 30871 ft | 519 kts | 48° |
| 2026-04-30 03:00 | 46.81155 | 157.81861 | 30864 ft | 518 kts | 49° |
| 2026-04-30 03:01 | 46.85587 | 157.90082 | 30863 ft | 518 kts | 49° |
| 2026-04-30 03:01 | 46.90043 | 157.98373 | 30868 ft | 518 kts | 49° |
| 2026-04-30 03:02 | 46.94493 | 158.06678 | 30854 ft | 518 kts | 49° |
| 2026-04-30 03:02 | 46.98930 | 158.14983 | 30849 ft | 518 kts | 49° |
| 2026-04-30 03:03 | 47.03363 | 158.23306 | 30845 ft | 517 kts | 49° |
| 2026-04-30 03:03 | 47.09998 | 158.35811 | 30830 ft | 517 kts | 49° |
| 2026-04-30 03:04 | 47.14407 | 158.44153 | 30827 ft | 517 kts | 49° |
| 2026-04-30 03:04 | 47.18803 | 158.52494 | 30825 ft | 516 kts | 49° |
| 2026-04-30 03:05 | 47.23170 | 158.60805 | 30821 ft | 516 kts | 49° |
| 2026-04-30 03:05 | 47.27561 | 158.69189 | 30814 ft | 515 kts | 49° |
| 2026-04-30 03:06 | 47.31939 | 158.77571 | 30807 ft | 515 kts | 49° |
| 2026-04-30 03:06 | 47.36274 | 158.85897 | 30806 ft | 514 kts | 49° |
| 2026-04-30 03:07 | 47.40628 | 158.94287 | 30801 ft | 514 kts | 49° |
| 2026-04-30 03:07 | 47.44971 | 159.02680 | 30791 ft | 513 kts | 49° |
| 2026-04-30 03:08 | 47.49299 | 159.11069 | 30796 ft | 513 kts | 49° |
| 2026-04-30 03:08 | 47.53623 | 159.19476 | 30779 ft | 512 kts | 49° |
| 2026-04-30 03:09 | 47.57904 | 159.27826 | 30780 ft | 512 kts | 49° |
| 2026-04-30 03:09 | 47.62201 | 159.36233 | 30779 ft | 511 kts | 50° |
| 2026-04-30 03:10 | 47.66487 | 159.44642 | 30776 ft | 510 kts | 50° |
| 2026-04-30 03:10 | 47.70762 | 159.53058 | 30769 ft | 510 kts | 50° |
| 2026-04-30 03:11 | 47.75009 | 159.61442 | 30766 ft | 509 kts | 50° |
| 2026-04-30 03:11 | 47.79259 | 159.69860 | 30763 ft | 508 kts | 50° |
| 2026-04-30 03:12 | 47.83496 | 159.78278 | 30756 ft | 508 kts | 50° |
| 2026-04-30 03:12 | 47.87721 | 159.86698 | 30756 ft | 507 kts | 50° |
| 2026-04-30 03:13 | 47.91944 | 159.95139 | 30750 ft | 507 kts | 50° |
| 2026-04-30 03:13 | 47.96128 | 160.03527 | 30746 ft | 507 kts | 50° |
| 2026-04-30 03:14 | 48.00324 | 160.11969 | 30744 ft | 506 kts | 50° |
| 2026-04-30 03:14 | 48.04521 | 160.20436 | 30741 ft | 506 kts | 50° |
| 2026-04-30 03:15 | 48.08688 | 160.28869 | 30739 ft | 506 kts | 50° |
| 2026-04-30 03:15 | 48.12870 | 160.37359 | 30731 ft | 505 kts | 50° |
| 2026-04-30 03:16 | 48.17038 | 160.45847 | 30733 ft | 505 kts | 50° |
| 2026-04-30 03:16 | 48.20492 | 160.52903 | 30731 ft | 505 kts | 50° |
| 2026-04-30 03:17 | 48.25331 | 160.62816 | 30725 ft | 505 kts | 50° |
| 2026-04-30 03:17 | 48.29462 | 160.71356 | 30720 ft | 506 kts | 51° |
| 2026-04-30 03:18 | 48.33482 | 160.80043 | 30719 ft | 506 kts | 52° |
| 2026-04-30 03:18 | 48.36797 | 160.87311 | 30716 ft | 506 kts | 52° |
| 2026-04-30 03:19 | 48.40785 | 160.96050 | 30715 ft | 506 kts | 52° |
| 2026-04-30 03:19 | 48.44782 | 161.04796 | 30711 ft | 506 kts | 52° |
| 2026-04-30 03:20 | 48.48753 | 161.13497 | 30704 ft | 506 kts | 52° |
| 2026-04-30 03:20 | 48.52737 | 161.22254 | 30705 ft | 506 kts | 52° |
| 2026-04-30 03:21 | 48.56712 | 161.31022 | 30698 ft | 505 kts | 53° |
| 2026-04-30 03:21 | 48.60671 | 161.39785 | 30692 ft | 505 kts | 53° |
| 2026-04-30 03:22 | 48.64630 | 161.48578 | 30691 ft | 505 kts | 53° |
| 2026-04-30 03:22 | 48.68577 | 161.57371 | 30688 ft | 504 kts | 53° |
| 2026-04-30 03:23 | 48.72487 | 161.66111 | 30687 ft | 504 kts | 53° |
| 2026-04-30 03:23 | 48.76414 | 161.74916 | 30687 ft | 504 kts | 53° |
| 2026-04-30 03:24 | 48.80327 | 161.83722 | 30677 ft | 503 kts | 53° |
| 2026-04-30 03:24 | 48.84231 | 161.92531 | 30678 ft | 503 kts | 53° |
| 2026-04-30 03:25 | 48.88131 | 162.01363 | 30676 ft | 503 kts | 53° |
| 2026-04-30 03:25 | 48.92017 | 162.10192 | 30671 ft | 502 kts | 54° |
| 2026-04-30 03:26 | 48.95882 | 162.19002 | 30672 ft | 502 kts | 54° |
| 2026-04-30 03:26 | 48.99756 | 162.27860 | 30666 ft | 502 kts | 54° |
| 2026-04-30 03:27 | 49.03623 | 162.36736 | 30665 ft | 502 kts | 54° |
| 2026-04-30 03:27 | 49.07485 | 162.45629 | 30666 ft | 502 kts | 54° |
| 2026-04-30 03:28 | 49.11308 | 162.54458 | 30670 ft | 502 kts | 54° |
| 2026-04-30 03:28 | 49.15156 | 162.63374 | 30655 ft | 501 kts | 54° |
| 2026-04-30 03:29 | 49.18986 | 162.72279 | 30651 ft | 501 kts | 55° |
| 2026-04-30 03:29 | 49.22808 | 162.81195 | 30668 ft | 501 kts | 54° |
| 2026-04-30 03:30 | 49.26624 | 162.90132 | 30652 ft | 501 kts | 55° |
| 2026-04-30 03:30 | 49.30414 | 162.99034 | 30653 ft | 501 kts | 55° |
| 2026-04-30 03:31 | 49.34224 | 163.08015 | 30646 ft | 502 kts | 55° |
| 2026-04-30 03:31 | 49.38028 | 163.17006 | 30667 ft | 502 kts | 56° |
| 2026-04-30 03:32 | 49.41817 | 163.26004 | 30653 ft | 502 kts | 56° |
| 2026-04-30 03:32 | 49.45605 | 163.35019 | 30652 ft | 502 kts | 56° |
| 2026-04-30 03:33 | 49.49370 | 163.44008 | 30648 ft | 503 kts | 56° |
| 2026-04-30 03:33 | 49.53153 | 163.53077 | 30651 ft | 503 kts | 56° |
| 2026-04-30 03:34 | 49.56934 | 163.62169 | 30654 ft | 504 kts | 56° |
| 2026-04-30 03:34 | 49.60710 | 163.71286 | 30646 ft | 504 kts | 56° |
| 2026-04-30 03:35 | 49.64452 | 163.80349 | 30644 ft | 504 kts | 57° |
| 2026-04-30 03:35 | 49.68224 | 163.89513 | 30642 ft | 504 kts | 57° |
| 2026-04-30 03:36 | 49.71983 | 163.98680 | 30650 ft | 504 kts | 57° |
| 2026-04-30 03:36 | 49.75707 | 164.07794 | 30646 ft | 505 kts | 57° |
| 2026-04-30 03:37 | 49.79459 | 164.17007 | 30638 ft | 505 kts | 57° |
| 2026-04-30 03:37 | 49.83200 | 164.26226 | 30639 ft | 505 kts | 57° |
| 2026-04-30 03:38 | 49.86939 | 164.35471 | 30636 ft | 506 kts | 57° |
| 2026-04-30 03:38 | 49.90662 | 164.44711 | 30632 ft | 506 kts | 58° |
| 2026-04-30 03:39 | 49.94395 | 164.54007 | 30628 ft | 506 kts | 58° |
| 2026-04-30 03:39 | 49.98113 | 164.63301 | 30648 ft | 506 kts | 58° |
| 2026-04-30 03:40 | 50.01821 | 164.72601 | 30628 ft | 506 kts | 58° |
| 2026-04-30 03:40 | 50.05496 | 164.81850 | 30623 ft | 506 kts | 58° |
| 2026-04-30 03:41 | 50.09193 | 164.91189 | 30638 ft | 506 kts | 58° |
| 2026-04-30 03:41 | 50.12883 | 165.00544 | 30635 ft | 506 kts | 59° |
| 2026-04-30 03:42 | 50.16589 | 165.09867 | 30617 ft | 506 kts | 56° |
| 2026-04-30 03:42 | 50.20986 | 165.18344 | 30628 ft | 506 kts | 47° |
| 2026-04-30 03:43 | 50.25855 | 165.26294 | 30611 ft | 506 kts | 46° |
| 2026-04-30 03:43 | 50.30735 | 165.34276 | 30621 ft | 506 kts | 47° |
| 2026-04-30 03:44 | 50.35576 | 165.42303 | 30623 ft | 506 kts | 47° |
| 2026-04-30 03:44 | 50.40363 | 165.50313 | 30620 ft | 507 kts | 48° |
| 2026-04-30 03:45 | 50.45182 | 165.58412 | 30618 ft | 507 kts | 48° |
| 2026-04-30 03:45 | 50.49994 | 165.66519 | 30611 ft | 507 kts | 48° |
| 2026-04-30 03:46 | 50.54802 | 165.74643 | 30614 ft | 507 kts | 48° |
| 2026-04-30 03:46 | 50.59599 | 165.82771 | 30612 ft | 508 kts | 48° |
| 2026-04-30 03:47 | 50.64402 | 165.90938 | 30617 ft | 508 kts | 49° |
| 2026-04-30 03:47 | 50.69175 | 165.99079 | 30623 ft | 509 kts | 49° |
| 2026-04-30 03:48 | 50.73979 | 166.07299 | 30614 ft | 509 kts | 49° |
| 2026-04-30 03:48 | 50.78787 | 166.15552 | 30618 ft | 509 kts | 49° |
| 2026-04-30 03:49 | 50.83557 | 166.23767 | 30617 ft | 509 kts | 49° |
| 2026-04-30 03:49 | 50.88345 | 166.32044 | 30617 ft | 509 kts | 49° |
| 2026-04-30 03:50 | 50.93133 | 166.40348 | 30622 ft | 510 kts | 49° |
| 2026-04-30 03:50 | 50.97926 | 166.48683 | 30610 ft | 511 kts | 49° |
| 2026-04-30 03:51 | 51.02676 | 166.56974 | 30622 ft | 510 kts | 49° |
| 2026-04-30 03:51 | 51.07447 | 166.65325 | 30627 ft | 510 kts | 49° |
| 2026-04-30 03:52 | 51.12217 | 166.73705 | 30620 ft | 510 kts | 49° |
| 2026-04-30 03:52 | 51.16979 | 166.82101 | 30624 ft | 510 kts | 49° |
| 2026-04-30 03:53 | 51.21737 | 166.90515 | 30624 ft | 510 kts | 49° |
| 2026-04-30 03:53 | 51.26459 | 166.98893 | 30626 ft | 509 kts | 49° |
| 2026-04-30 03:54 | 51.31195 | 167.07326 | 30630 ft | 509 kts | 49° |
| 2026-04-30 03:54 | 51.35919 | 167.15764 | 30623 ft | 509 kts | 50° |
| 2026-04-30 03:55 | 51.40638 | 167.24222 | 30634 ft | 509 kts | 50° |
| 2026-04-30 03:55 | 51.45324 | 167.32649 | 30625 ft | 509 kts | 50° |
| 2026-04-30 03:56 | 51.50023 | 167.41127 | 30622 ft | 509 kts | 50° |
| 2026-04-30 03:56 | 51.54728 | 167.49644 | 30633 ft | 509 kts | 50° |
| 2026-04-30 03:57 | 51.59398 | 167.58129 | 30628 ft | 509 kts | 50° |
| 2026-04-30 03:57 | 51.64093 | 167.66686 | 30637 ft | 509 kts | 50° |
| 2026-04-30 03:58 | 51.68785 | 167.75266 | 30629 ft | 509 kts | 50° |
| 2026-04-30 03:58 | 51.73430 | 167.83790 | 30633 ft | 509 kts | 50° |
| 2026-04-30 03:59 | 51.78112 | 167.92410 | 30633 ft | 509 kts | 50° |
| 2026-04-30 03:59 | 51.82784 | 168.01044 | 30633 ft | 510 kts | 50° |
| 2026-04-30 04:00 | 51.87452 | 168.09698 | 30634 ft | 510 kts | 50° |
| 2026-04-30 04:00 | 51.89786 | 168.14037 | 30148 ft | 512 kts | 50° |
| 2026-04-30 04:00 | 51.92121 | 168.18386 | 30391 ft | 511 kts | 50° |
| 2026-04-30 04:01 | 51.94460 | 168.22749 | 30494 ft | 514 kts | 50° |
| 2026-04-30 04:01 | 51.96782 | 168.27087 | 30561 ft | 518 kts | 50° |
| 2026-04-30 04:01 | 52.01530 | 168.35983 | 30619 ft | 526 kts | 50° |
| 2026-04-30 04:02 | 52.06342 | 168.45030 | 30629 ft | 533 kts | 50° |
| 2026-04-30 04:02 | 52.11228 | 168.54248 | 30629 ft | 539 kts | 50° |
| 2026-04-30 04:03 | 52.16148 | 168.63564 | 30624 ft | 544 kts | 50° |
| 2026-04-30 04:03 | 52.21089 | 168.72957 | 30624 ft | 548 kts | 50° |
| 2026-04-30 04:04 | 52.26045 | 168.82414 | 30622 ft | 551 kts | 50° |
| 2026-04-30 04:04 | 52.30185 | 168.90340 | 30621 ft | 553 kts | 50° |
| 2026-04-30 04:05 | 52.35173 | 168.99923 | 30618 ft | 554 kts | 50° |
| 2026-04-30 04:05 | 52.40161 | 169.09542 | 30624 ft | 554 kts | 50° |
| 2026-04-30 04:06 | 52.45145 | 169.19193 | 30619 ft | 553 kts | 50° |
| 2026-04-30 04:06 | 52.50111 | 169.28843 | 30621 ft | 553 kts | 50° |
| 2026-04-30 04:07 | 52.55037 | 169.38455 | 30617 ft | 552 kts | 50° |
| 2026-04-30 04:08 | 52.62444 | 169.52972 | 31080 ft | 546 kts | 52° |
| 2026-04-30 04:08 | 52.64840 | 169.57681 | 31561 ft | 528 kts | 52° |
| 2026-04-30 04:08 | 52.67186 | 169.62304 | 31380 ft | 524 kts | 52° |
| 2026-04-30 04:08 | 52.69505 | 169.66885 | 31124 ft | 518 kts | 52° |
| 2026-04-30 04:09 | 52.71805 | 169.71438 | 30900 ft | 516 kts | 52° |
| 2026-04-30 04:09 | 52.74076 | 169.75944 | 30776 ft | 516 kts | 52° |
| 2026-04-30 04:09 | 52.76372 | 169.80507 | 30696 ft | 515 kts | 52° |
| 2026-04-30 04:10 | 52.80951 | 169.89630 | 30639 ft | 517 kts | 52° |
| 2026-04-30 04:10 | 52.85566 | 169.98856 | 30628 ft | 521 kts | 52° |
| 2026-04-30 04:11 | 52.90164 | 170.08077 | 30636 ft | 524 kts | 52° |
| 2026-04-30 04:11 | 52.95108 | 170.17028 | 30623 ft | 529 kts | 44° |
| 2026-04-30 04:12 | 53.00883 | 170.24657 | 30635 ft | 531 kts | 38° |
| 2026-04-30 04:12 | 53.06801 | 170.32036 | 30622 ft | 532 kts | 38° |
| 2026-04-30 04:13 | 53.12669 | 170.39436 | 30627 ft | 532 kts | 39° |
| 2026-04-30 04:13 | 53.18541 | 170.46948 | 30629 ft | 531 kts | 39° |
| 2026-04-30 04:14 | 53.24400 | 170.54501 | 30633 ft | 531 kts | 39° |
| 2026-04-30 04:14 | 53.30247 | 170.62066 | 30626 ft | 531 kts | 39° |
| 2026-04-30 04:15 | 53.36091 | 170.69647 | 30631 ft | 531 kts | 39° |
| 2026-04-30 04:15 | 53.41898 | 170.77205 | 30630 ft | 532 kts | 39° |
| 2026-04-30 04:16 | 53.47783 | 170.84890 | 30640 ft | 532 kts | 39° |
| 2026-04-30 04:16 | 53.53589 | 170.92500 | 30626 ft | 533 kts | 39° |
| 2026-04-30 04:17 | 53.59444 | 171.00204 | 30637 ft | 534 kts | 39° |
| 2026-04-30 04:17 | 53.65300 | 171.07935 | 30629 ft | 534 kts | 39° |
| 2026-04-30 04:18 | 53.71116 | 171.15642 | 30642 ft | 535 kts | 39° |
| 2026-04-30 04:18 | 53.76980 | 171.23440 | 30634 ft | 536 kts | 39° |
| 2026-04-30 04:19 | 53.82840 | 171.31261 | 30641 ft | 537 kts | 39° |
| 2026-04-30 04:19 | 53.88709 | 171.39125 | 30636 ft | 537 kts | 39° |
| 2026-04-30 04:20 | 53.94540 | 171.46966 | 30638 ft | 538 kts | 39° |
| 2026-04-30 04:20 | 54.00411 | 171.54889 | 30634 ft | 539 kts | 39° |
| 2026-04-30 04:21 | 54.06284 | 171.62845 | 30638 ft | 539 kts | 39° |
| 2026-04-30 04:21 | 54.12157 | 171.70830 | 30629 ft | 540 kts | 39° |
| 2026-04-30 04:22 | 54.17994 | 171.78796 | 30638 ft | 541 kts | 39° |
| 2026-04-30 04:22 | 54.23869 | 171.86843 | 30635 ft | 542 kts | 39° |
| 2026-04-30 04:23 | 54.29752 | 171.94932 | 30642 ft | 542 kts | 39° |
| 2026-04-30 04:23 | 54.35643 | 172.03064 | 30633 ft | 543 kts | 39° |
| 2026-04-30 04:24 | 54.41534 | 172.11225 | 30637 ft | 544 kts | 39° |
| 2026-04-30 04:24 | 54.47426 | 172.19420 | 30635 ft | 545 kts | 39° |
| 2026-04-30 04:25 | 54.53282 | 172.27595 | 30638 ft | 545 kts | 39° |
| 2026-04-30 04:25 | 54.59176 | 172.35855 | 30635 ft | 546 kts | 39° |
| 2026-04-30 04:26 | 54.65076 | 172.44155 | 30643 ft | 547 kts | 38° |
| 2026-04-30 04:26 | 54.70974 | 172.52485 | 30637 ft | 548 kts | 38° |
| 2026-04-30 04:27 | 54.76871 | 172.60846 | 30643 ft | 548 kts | 38° |
| 2026-04-30 04:27 | 54.82777 | 172.69253 | 30635 ft | 549 kts | 38° |
| 2026-04-30 04:28 | 54.88643 | 172.77634 | 30642 ft | 550 kts | 38° |
| 2026-04-30 04:28 | 54.94548 | 172.86105 | 30636 ft | 550 kts | 38° |
| 2026-04-30 04:29 | 55.00451 | 172.94606 | 30644 ft | 551 kts | 38° |
| 2026-04-30 04:29 | 55.06356 | 173.03144 | 30637 ft | 551 kts | 38° |
| 2026-04-30 04:30 | 55.12256 | 173.11708 | 30643 ft | 552 kts | 38° |
| 2026-04-30 04:30 | 55.18126 | 173.20264 | 30640 ft | 552 kts | 38° |
| 2026-04-30 04:31 | 55.24034 | 173.28907 | 30643 ft | 553 kts | 38° |
| 2026-04-30 04:31 | 55.29936 | 173.37578 | 30642 ft | 553 kts | 38° |
| 2026-04-30 04:32 | 55.35839 | 173.46285 | 30644 ft | 553 kts | 38° |
| 2026-04-30 04:32 | 55.41724 | 173.55001 | 30644 ft | 554 kts | 38° |
| 2026-04-30 04:33 | 55.47622 | 173.63770 | 30645 ft | 554 kts | 38° |
| 2026-04-30 04:33 | 55.53483 | 173.72521 | 30645 ft | 555 kts | 38° |
| 2026-04-30 04:34 | 55.59375 | 173.81353 | 30647 ft | 555 kts | 38° |
| 2026-04-30 04:34 | 55.65262 | 173.90214 | 30644 ft | 555 kts | 38° |
| 2026-04-30 04:35 | 55.71144 | 173.99104 | 30647 ft | 556 kts | 38° |
| 2026-04-30 04:35 | 55.76988 | 174.07974 | 30648 ft | 556 kts | 38° |
| 2026-04-30 04:36 | 55.82869 | 174.16935 | 30655 ft | 556 kts | 38° |
| 2026-04-30 04:36 | 55.88751 | 174.25934 | 30658 ft | 556 kts | 37° |
| 2026-04-30 04:37 | 55.94587 | 174.34895 | 30748 ft | 556 kts | 40° |
| 2026-04-30 04:37 | 56.00378 | 174.43811 | 30654 ft | 545 kts | 41° |
| 2026-04-30 04:38 | 56.06115 | 174.52713 | 30671 ft | 546 kts | 41° |
| 2026-04-30 04:38 | 56.11853 | 174.61650 | 30669 ft | 548 kts | 41° |
| 2026-04-30 04:39 | 56.17613 | 174.70647 | 30668 ft | 549 kts | 41° |
| 2026-04-30 04:39 | 56.23340 | 174.79627 | 30670 ft | 550 kts | 41° |
| 2026-04-30 04:40 | 56.29110 | 174.88713 | 30668 ft | 551 kts | 41° |
| 2026-04-30 04:40 | 56.34876 | 174.97831 | 30674 ft | 552 kts | 41° |
| 2026-04-30 04:41 | 56.40655 | 175.07009 | 30670 ft | 553 kts | 41° |
| 2026-04-30 04:41 | 56.46419 | 175.16202 | 30668 ft | 553 kts | 41° |
| 2026-04-30 04:42 | 56.52195 | 175.25452 | 30671 ft | 554 kts | 41° |
| 2026-04-30 04:42 | 56.57925 | 175.34667 | 30674 ft | 554 kts | 41° |
| 2026-04-30 04:43 | 56.63699 | 175.43992 | 30675 ft | 554 kts | 41° |
| 2026-04-30 04:43 | 56.69452 | 175.53326 | 30677 ft | 554 kts | 41° |
| 2026-04-30 04:44 | 56.75210 | 175.62706 | 30676 ft | 555 kts | 41° |
| 2026-04-30 04:44 | 56.80939 | 175.72078 | 30676 ft | 555 kts | 41° |
| 2026-04-30 04:45 | 56.86696 | 175.81536 | 30676 ft | 556 kts | 41° |
| 2026-04-30 04:45 | 56.92444 | 175.91022 | 30682 ft | 556 kts | 41° |
| 2026-04-30 04:46 | 56.98186 | 176.00539 | 30671 ft | 556 kts | 41° |
| 2026-04-30 04:46 | 57.03890 | 176.10033 | 30677 ft | 557 kts | 41° |
| 2026-04-30 04:47 | 57.09621 | 176.19615 | 30686 ft | 557 kts | 41° |
| 2026-04-30 04:47 | 57.15350 | 176.29234 | 30672 ft | 557 kts | 41° |
| 2026-04-30 04:48 | 57.21081 | 176.38900 | 30686 ft | 557 kts | 41° |
| 2026-04-30 04:48 | 57.26801 | 176.48590 | 30678 ft | 558 kts | 41° |
| 2026-04-30 04:49 | 57.32477 | 176.58246 | 30679 ft | 558 kts | 41° |
| 2026-04-30 04:49 | 57.38208 | 176.68041 | 30682 ft | 558 kts | 41° |
| 2026-04-30 04:50 | 57.43891 | 176.77796 | 30677 ft | 559 kts | 41° |
| 2026-04-30 04:50 | 57.49604 | 176.87646 | 30682 ft | 559 kts | 41° |
| 2026-04-30 04:51 | 57.55304 | 176.97518 | 30679 ft | 559 kts | 41° |
| 2026-04-30 04:51 | 57.61005 | 177.07436 | 30681 ft | 560 kts | 41° |
| 2026-04-30 04:52 | 57.66649 | 177.17300 | 30676 ft | 560 kts | 41° |
| 2026-04-30 04:52 | 57.72346 | 177.27300 | 30677 ft | 560 kts | 41° |
| 2026-04-30 04:53 | 57.77073 | 177.35633 | 30676 ft | 561 kts | 41° |
| 2026-04-30 04:53 | 57.82748 | 177.45679 | 30679 ft | 561 kts | 41° |
| 2026-04-30 04:54 | 57.88431 | 177.55783 | 30676 ft | 562 kts | 41° |
| 2026-04-30 04:54 | 57.94094 | 177.65900 | 30676 ft | 562 kts | 41° |
| 2026-04-30 04:55 | 57.99756 | 177.76060 | 30675 ft | 562 kts | 41° |
| 2026-04-30 04:55 | 58.05421 | 177.86274 | 30672 ft | 562 kts | 41° |
| 2026-04-30 04:56 | 58.11043 | 177.96456 | 30676 ft | 563 kts | 41° |
| 2026-04-30 04:56 | 58.16688 | 178.06726 | 30675 ft | 563 kts | 41° |
| 2026-04-30 04:57 | 58.22343 | 178.17063 | 30670 ft | 563 kts | 42° |
| 2026-04-30 04:57 | 58.27971 | 178.27399 | 30668 ft | 563 kts | 42° |
| 2026-04-30 04:58 | 58.33595 | 178.37776 | 30669 ft | 562 kts | 42° |
| 2026-04-30 04:58 | 58.39179 | 178.48127 | 30664 ft | 562 kts | 42° |
| 2026-04-30 04:59 | 58.44782 | 178.58561 | 30664 ft | 562 kts | 42° |
| 2026-04-30 04:59 | 58.50366 | 178.69010 | 30665 ft | 561 kts | 42° |
| 2026-04-30 05:00 | 58.55903 | 178.79420 | 30660 ft | 560 kts | 42° |
| 2026-04-30 05:00 | 58.61456 | 178.89910 | 30652 ft | 559 kts | 42° |
| 2026-04-30 05:01 | 58.66995 | 179.00421 | 30659 ft | 558 kts | 42° |
| 2026-04-30 05:01 | 58.72515 | 179.10946 | 30663 ft | 558 kts | 42° |
| 2026-04-30 05:02 | 58.77981 | 179.21417 | 30655 ft | 557 kts | 42° |
| 2026-04-30 05:02 | 58.83467 | 179.31978 | 30652 ft | 556 kts | 42° |
| 2026-04-30 05:03 | 58.88938 | 179.42559 | 30648 ft | 555 kts | 42° |
| 2026-04-30 05:03 | 58.94380 | 179.53133 | 30650 ft | 554 kts | 43° |
| 2026-04-30 05:04 | 58.99809 | 179.63731 | 30647 ft | 553 kts | 43° |
| 2026-04-30 05:04 | 59.05180 | 179.74268 | 30651 ft | 552 kts | 43° |
| 2026-04-30 05:05 | 59.10561 | 179.84873 | 30650 ft | 550 kts | 43° |
| 2026-04-30 05:05 | 59.15939 | 179.95523 | 30651 ft | 549 kts | 43° |
| 2026-04-30 05:06 | 59.23955 | -179.88508 | 30650 ft | 548 kts | 43° |
| 2026-04-30 05:06 | 59.29235 | -179.77927 | 30648 ft | 546 kts | 43° |
| 2026-04-30 05:07 | 59.34535 | -179.67256 | 30647 ft | 545 kts | 43° |
| 2026-04-30 05:07 | 59.39810 | -179.56583 | 30640 ft | 544 kts | 43° |
| 2026-04-30 05:08 | 59.45078 | -179.45876 | 30641 ft | 544 kts | 43° |
| 2026-04-30 05:08 | 59.50312 | -179.35185 | 30640 ft | 544 kts | 43° |
| 2026-04-30 05:09 | 59.55553 | -179.24430 | 30638 ft | 544 kts | 43° |
| 2026-04-30 05:09 | 59.60791 | -179.13629 | 30635 ft | 544 kts | 44° |
| 2026-04-30 05:10 | 59.66008 | -179.02817 | 30636 ft | 544 kts | 44° |
| 2026-04-30 05:10 | 59.71196 | -178.92016 | 30637 ft | 543 kts | 44° |
| 2026-04-30 05:11 | 59.76393 | -178.81143 | 30620 ft | 543 kts | 44° |
| 2026-04-30 05:11 | 59.81575 | -178.70248 | 30621 ft | 542 kts | 44° |
| 2026-04-30 05:12 | 59.86753 | -178.59310 | 30627 ft | 541 kts | 44° |
| 2026-04-30 05:12 | 59.91875 | -178.48436 | 30615 ft | 541 kts | 44° |
| 2026-04-30 05:13 | 59.97016 | -178.37469 | 30615 ft | 540 kts | 44° |
| 2026-04-30 05:13 | 60.02141 | -178.26481 | 30610 ft | 539 kts | 44° |
| 2026-04-30 05:14 | 60.07254 | -178.15467 | 30611 ft | 539 kts | 45° |
| 2026-04-30 05:14 | 60.12313 | -178.04516 | 30608 ft | 538 kts | 45° |
| 2026-04-30 05:15 | 60.17400 | -177.93456 | 30747 ft | 539 kts | 45° |
| 2026-04-30 05:15 | 60.20014 | -177.88071 | 30978 ft | 536 kts | 40° |
| 2026-04-30 05:15 | 60.22823 | -177.83171 | 31199 ft | 533 kts | 37° |
| 2026-04-30 05:16 | 60.25686 | -177.78462 | 31373 ft | 532 kts | 36° |
| 2026-04-30 05:16 | 60.28545 | -177.73836 | 31538 ft | 532 kts | 36° |
| 2026-04-30 05:16 | 60.31431 | -177.69168 | 31750 ft | 531 kts | 36° |
| 2026-04-30 05:16 | 60.34313 | -177.64474 | 32014 ft | 529 kts | 37° |
| 2026-04-30 05:17 | 60.37161 | -177.59791 | 32287 ft | 527 kts | 37° |
| 2026-04-30 05:17 | 60.39999 | -177.55087 | 32498 ft | 525 kts | 37° |
| 2026-04-30 05:17 | 60.45602 | -177.45722 | 32583 ft | 523 kts | 37° |
| 2026-04-30 05:18 | 60.51192 | -177.36320 | 32581 ft | 521 kts | 37° |
| 2026-04-30 05:18 | 60.56774 | -177.26893 | 32585 ft | 520 kts | 37° |
| 2026-04-30 05:19 | 60.62331 | -177.17473 | 32583 ft | 520 kts | 38° |
| 2026-04-30 05:19 | 60.67890 | -177.08007 | 32577 ft | 520 kts | 38° |
| 2026-04-30 05:20 | 60.73408 | -176.98567 | 32576 ft | 520 kts | 38° |
| 2026-04-30 05:20 | 60.78953 | -176.89035 | 32571 ft | 520 kts | 38° |
| 2026-04-30 05:21 | 60.84494 | -176.79466 | 32567 ft | 520 kts | 38° |
| 2026-04-30 05:21 | 60.90030 | -176.69859 | 32562 ft | 520 kts | 38° |
| 2026-04-30 05:22 | 60.95517 | -176.60293 | 32564 ft | 520 kts | 38° |
| 2026-04-30 05:22 | 61.01025 | -176.50643 | 32565 ft | 520 kts | 38° |
| 2026-04-30 05:23 | 61.06529 | -176.40958 | 32560 ft | 519 kts | 39° |
| 2026-04-30 05:23 | 61.12020 | -176.31249 | 32557 ft | 519 kts | 39° |
| 2026-04-30 05:24 | 61.17499 | -176.21514 | 32557 ft | 518 kts | 39° |
| 2026-04-30 05:24 | 61.22937 | -176.11806 | 32556 ft | 518 kts | 39° |
| 2026-04-30 05:25 | 61.28390 | -176.02026 | 32559 ft | 517 kts | 39° |
| 2026-04-30 05:25 | 61.33836 | -175.92212 | 32555 ft | 517 kts | 39° |
| 2026-04-30 05:26 | 61.39264 | -175.82383 | 32551 ft | 516 kts | 39° |
| 2026-04-30 05:26 | 61.44655 | -175.72575 | 32553 ft | 516 kts | 40° |
| 2026-04-30 05:27 | 61.50058 | -175.62697 | 32546 ft | 515 kts | 40° |
| 2026-04-30 05:27 | 61.55456 | -175.52781 | 32541 ft | 515 kts | 40° |
| 2026-04-30 05:28 | 61.60843 | -175.42838 | 32547 ft | 515 kts | 40° |
| 2026-04-30 05:28 | 61.66224 | -175.32858 | 32546 ft | 515 kts | 40° |
| 2026-04-30 05:29 | 61.71594 | -175.22848 | 32562 ft | 515 kts | 40° |
| 2026-04-30 05:29 | 61.76917 | -175.12879 | 32557 ft | 515 kts | 40° |
| 2026-04-30 05:30 | 61.82279 | -175.02789 | 32544 ft | 515 kts | 41° |
| 2026-04-30 05:30 | 61.87635 | -174.92661 | 32558 ft | 514 kts | 41° |
| 2026-04-30 05:31 | 61.92932 | -174.82596 | 32553 ft | 514 kts | 41° |
| 2026-04-30 05:31 | 61.98260 | -174.72421 | 32554 ft | 515 kts | 41° |
| 2026-04-30 05:32 | 62.03583 | -174.62208 | 32553 ft | 515 kts | 41° |
| 2026-04-30 05:32 | 62.08899 | -174.51955 | 32556 ft | 514 kts | 41° |
| 2026-04-30 05:33 | 62.14169 | -174.41742 | 32556 ft | 514 kts | 41° |
| 2026-04-30 05:33 | 62.19461 | -174.31436 | 32556 ft | 514 kts | 41° |
| 2026-04-30 05:34 | 62.24752 | -174.21082 | 32550 ft | 514 kts | 42° |
| 2026-04-30 05:34 | 62.30036 | -174.10688 | 32555 ft | 514 kts | 42° |
| 2026-04-30 05:35 | 62.35271 | -174.00341 | 32558 ft | 514 kts | 42° |
| 2026-04-30 05:35 | 62.40527 | -173.89900 | 32570 ft | 514 kts | 42° |
| 2026-04-30 05:36 | 62.45775 | -173.79421 | 32559 ft | 513 kts | 43° |
| 2026-04-30 05:36 | 62.51022 | -173.68894 | 32558 ft | 513 kts | 43° |
| 2026-04-30 05:37 | 62.56246 | -173.58357 | 32573 ft | 513 kts | 43° |
| 2026-04-30 05:37 | 62.61468 | -173.47774 | 32572 ft | 513 kts | 43° |
| 2026-04-30 05:38 | 62.66642 | -173.37234 | 32580 ft | 513 kts | 43° |
| 2026-04-30 05:38 | 62.71840 | -173.26593 | 32580 ft | 512 kts | 43° |
| 2026-04-30 05:39 | 62.77032 | -173.15907 | 32577 ft | 512 kts | 43° |
| 2026-04-30 05:39 | 62.82198 | -173.05223 | 32579 ft | 511 kts | 44° |
| 2026-04-30 05:40 | 62.87320 | -172.94576 | 32592 ft | 511 kts | 44° |
| 2026-04-30 05:40 | 62.92472 | -172.83811 | 32587 ft | 511 kts | 44° |
| 2026-04-30 05:41 | 62.96755 | -172.74820 | 32596 ft | 511 kts | 44° |
| 2026-04-30 05:41 | 63.01902 | -172.63965 | 32595 ft | 511 kts | 44° |
| 2026-04-30 05:42 | 63.07034 | -172.53086 | 32599 ft | 511 kts | 44° |
| 2026-04-30 05:42 | 63.12124 | -172.42239 | 32611 ft | 511 kts | 44° |
| 2026-04-30 05:43 | 63.17230 | -172.31302 | 32603 ft | 511 kts | 44° |
| 2026-04-30 05:43 | 63.22331 | -172.20321 | 32616 ft | 510 kts | 45° |
| 2026-04-30 05:44 | 63.27413 | -172.09322 | 32625 ft | 510 kts | 45° |
| 2026-04-30 05:44 | 63.32497 | -171.98262 | 32621 ft | 510 kts | 45° |
| 2026-04-30 05:45 | 63.37536 | -171.87243 | 32625 ft | 510 kts | 45° |
| 2026-04-30 05:45 | 63.42597 | -171.76118 | 32629 ft | 510 kts | 45° |
| 2026-04-30 05:46 | 63.47644 | -171.64965 | 32643 ft | 510 kts | 45° |
| 2026-04-30 05:46 | 63.52693 | -171.53749 | 32651 ft | 511 kts | 45° |
| 2026-04-30 05:47 | 63.57737 | -171.42484 | 32656 ft | 511 kts | 46° |
| 2026-04-30 05:47 | 63.62776 | -171.31171 | 32647 ft | 512 kts | 46° |
| 2026-04-30 05:48 | 63.67782 | -171.19874 | 32651 ft | 512 kts | 46° |
| 2026-04-30 05:48 | 63.72812 | -171.08459 | 32666 ft | 513 kts | 46° |
| 2026-04-30 05:49 | 63.77839 | -170.96992 | 32666 ft | 513 kts | 46° |
| 2026-04-30 05:49 | 63.82855 | -170.85489 | 32667 ft | 513 kts | 46° |
| 2026-04-30 05:50 | 63.87842 | -170.73988 | 32646 ft | 514 kts | 46° |
| 2026-04-30 05:50 | 63.92844 | -170.62391 | 32672 ft | 514 kts | 46° |
| 2026-04-30 05:51 | 63.97841 | -170.50745 | 32685 ft | 514 kts | 47° |
| 2026-04-30 05:51 | 64.02829 | -170.39055 | 32691 ft | 514 kts | 47° |
| 2026-04-30 05:52 | 64.07786 | -170.27370 | 32700 ft | 514 kts | 47° |
| 2026-04-30 05:52 | 64.12752 | -170.15602 | 32703 ft | 514 kts | 47° |
| 2026-04-30 05:53 | 64.17715 | -170.03781 | 32707 ft | 514 kts | 47° |
| 2026-04-30 05:53 | 64.22669 | -169.91912 | 32712 ft | 513 kts | 47° |
| 2026-04-30 05:54 | 64.27570 | -169.80108 | 32719 ft | 513 kts | 47° |
| 2026-04-30 05:54 | 64.32492 | -169.68184 | 32723 ft | 513 kts | 48° |
| 2026-04-30 05:55 | 64.37405 | -169.56214 | 32726 ft | 513 kts | 48° |
| 2026-04-30 05:55 | 64.42307 | -169.44210 | 32727 ft | 512 kts | 48° |
| 2026-04-30 05:56 | 64.47166 | -169.32246 | 32733 ft | 512 kts | 48° |
| 2026-04-30 05:56 | 64.52032 | -169.20193 | 32738 ft | 511 kts | 48° |
| 2026-04-30 05:57 | 64.56887 | -169.08098 | 32739 ft | 511 kts | 48° |
| 2026-04-30 05:57 | 64.61731 | -168.95966 | 32743 ft | 510 kts | 49° |
| 2026-04-30 05:58 | 64.66552 | -168.83824 | 32749 ft | 510 kts | 49° |
| 2026-04-30 05:58 | 64.71340 | -168.71694 | 32751 ft | 510 kts | 49° |
| 2026-04-30 05:59 | 64.76141 | -168.59463 | 32755 ft | 510 kts | 49° |
| 2026-04-30 05:59 | 64.80942 | -168.47166 | 32758 ft | 510 kts | 49° |
| 2026-04-30 06:00 | 64.85736 | -168.34815 | 32761 ft | 510 kts | 49° |
| 2026-04-30 06:00 | 64.90512 | -168.22443 | 32763 ft | 510 kts | 49° |
| 2026-04-30 06:01 | 64.95413 | -168.10367 | 32755 ft | 510 kts | 39° |
| 2026-04-30 06:01 | 65.01595 | -168.02370 | 32773 ft | 514 kts | 19° |
| 2026-04-30 06:02 | 65.08599 | -167.98917 | 32777 ft | 514 kts | 10° |
| 2026-04-30 06:02 | 65.15629 | -167.96153 | 32775 ft | 515 kts | 10° |
| 2026-04-30 06:03 | 65.22705 | -167.93237 | 32783 ft | 516 kts | 11° |
| 2026-04-30 06:03 | 65.29793 | -167.90163 | 32783 ft | 517 kts | 11° |
| 2026-04-30 06:04 | 65.36877 | -167.87025 | 32786 ft | 517 kts | 11° |
| 2026-04-30 06:05 | 65.47461 | -167.82310 | 32792 ft | 517 kts | 11° |
| 2026-04-30 06:05 | 65.54530 | -167.79149 | 32795 ft | 516 kts | 11° |
| 2026-04-30 06:06 | 65.61601 | -167.75972 | 32792 ft | 516 kts | 11° |
| 2026-04-30 06:06 | 65.68654 | -167.72786 | 32795 ft | 515 kts | 11° |
| 2026-04-30 06:07 | 65.75711 | -167.69579 | 32791 ft | 514 kts | 12° |
| 2026-04-30 06:07 | 65.82703 | -167.66383 | 32796 ft | 514 kts | 12° |
| 2026-04-30 06:08 | 65.89733 | -167.63153 | 32794 ft | 513 kts | 12° |
| 2026-04-30 06:08 | 65.96757 | -167.59908 | 32797 ft | 513 kts | 12° |
| 2026-04-30 06:09 | 66.03788 | -167.56640 | 32799 ft | 513 kts | 12° |
| 2026-04-30 06:09 | 66.10810 | -167.53358 | 32802 ft | 513 kts | 12° |
| 2026-04-30 06:10 | 66.17784 | -167.50081 | 32805 ft | 513 kts | 12° |
| 2026-04-30 06:10 | 66.24804 | -167.46764 | 32803 ft | 513 kts | 12° |
| 2026-04-30 06:11 | 66.31822 | -167.43428 | 32808 ft | 513 kts | 12° |
| 2026-04-30 06:11 | 66.38795 | -167.40095 | 32809 ft | 513 kts | 12° |
| 2026-04-30 06:12 | 66.45811 | -167.36723 | 32813 ft | 513 kts | 12° |
| 2026-04-30 06:12 | 66.52787 | -167.33350 | 32811 ft | 512 kts | 12° |
| 2026-04-30 06:13 | 66.59796 | -167.29942 | 32816 ft | 512 kts | 12° |
| 2026-04-30 06:13 | 66.66806 | -167.26514 | 32819 ft | 512 kts | 12° |
| 2026-04-30 06:14 | 66.73809 | -167.23070 | 32819 ft | 512 kts | 12° |
| 2026-04-30 06:14 | 66.80776 | -167.19623 | 32821 ft | 512 kts | 12° |
| 2026-04-30 06:15 | 66.87785 | -167.16135 | 32824 ft | 512 kts | 12° |
| 2026-04-30 06:15 | 66.94802 | -167.12623 | 32825 ft | 512 kts | 12° |
| 2026-04-30 06:16 | 67.01759 | -167.09120 | 32828 ft | 512 kts | 12° |
| 2026-04-30 06:16 | 67.08767 | -167.05572 | 32832 ft | 512 kts | 12° |
| 2026-04-30 06:17 | 67.15771 | -167.02003 | 32837 ft | 512 kts | 12° |
| 2026-04-30 06:17 | 67.22728 | -166.98439 | 32840 ft | 512 kts | 12° |
| 2026-04-30 06:18 | 67.29722 | -166.94834 | 32840 ft | 512 kts | 12° |
| 2026-04-30 06:18 | 67.36720 | -166.91205 | 32846 ft | 512 kts | 12° |
| 2026-04-30 06:19 | 67.43718 | -166.87555 | 32845 ft | 512 kts | 12° |
| 2026-04-30 06:19 | 67.50724 | -166.83878 | 32854 ft | 512 kts | 12° |
| 2026-04-30 06:20 | 67.57677 | -166.80207 | 32854 ft | 512 kts | 12° |
| 2026-04-30 06:20 | 67.64673 | -166.76492 | 32858 ft | 512 kts | 12° |
| 2026-04-30 06:21 | 67.71658 | -166.72759 | 32860 ft | 512 kts | 12° |
| 2026-04-30 06:21 | 67.78607 | -166.69023 | 32862 ft | 512 kts | 12° |
| 2026-04-30 06:22 | 67.85592 | -166.65245 | 32862 ft | 512 kts | 12° |
| 2026-04-30 06:22 | 67.92572 | -166.61447 | 32868 ft | 512 kts | 12° |
| 2026-04-30 06:23 | 67.99555 | -166.57623 | 32872 ft | 511 kts | 12° |
| 2026-04-30 06:23 | 68.06524 | -166.53783 | 32871 ft | 511 kts | 12° |
| 2026-04-30 06:24 | 68.13496 | -166.49919 | 32881 ft | 511 kts | 12° |
| 2026-04-30 06:24 | 68.20465 | -166.46032 | 32883 ft | 511 kts | 12° |
| 2026-04-30 06:25 | 68.27426 | -166.42124 | 32887 ft | 511 kts | 12° |
| 2026-04-30 06:25 | 68.34395 | -166.38189 | 32890 ft | 511 kts | 13° |
| 2026-04-30 06:26 | 68.41303 | -166.34262 | 32889 ft | 510 kts | 13° |
| 2026-04-30 06:26 | 68.48268 | -166.30280 | 32889 ft | 510 kts | 13° |
| 2026-04-30 06:27 | 68.55214 | -166.26282 | 32895 ft | 510 kts | 13° |
| 2026-04-30 06:27 | 68.62166 | -166.22256 | 32914 ft | 510 kts | 13° |
| 2026-04-30 06:28 | 68.67945 | -166.18889 | 32920 ft | 510 kts | 13° |
| 2026-04-30 06:28 | 68.74882 | -166.14824 | 32932 ft | 510 kts | 13° |
| 2026-04-30 06:29 | 68.82958 | -166.10061 | 32936 ft | 510 kts | 13° |
| 2026-04-30 06:29 | 68.88774 | -166.06618 | 32933 ft | 510 kts | 13° |
| 2026-04-30 06:30 | 68.95681 | -166.02658 | 32936 ft | 510 kts | 12° |
| 2026-04-30 06:30 | 69.02642 | -165.98706 | 32928 ft | 509 kts | 12° |
| 2026-04-30 06:31 | 69.09589 | -165.94721 | 32926 ft | 509 kts | 13° |
| 2026-04-30 06:31 | 69.16531 | -165.90694 | 32919 ft | 509 kts | 13° |
| 2026-04-30 06:32 | 69.23436 | -165.86655 | 32919 ft | 509 kts | 13° |
| 2026-04-30 06:32 | 69.30373 | -165.82572 | 32921 ft | 508 kts | 13° |
| 2026-04-30 06:33 | 69.37298 | -165.78470 | 32921 ft | 508 kts | 13° |
| 2026-04-30 06:33 | 69.44220 | -165.74343 | 32931 ft | 508 kts | 13° |
| 2026-04-30 06:34 | 69.51150 | -165.70185 | 32928 ft | 508 kts | 13° |
| 2026-04-30 06:34 | 69.58084 | -165.65996 | 32939 ft | 508 kts | 13° |
| 2026-04-30 06:35 | 69.65006 | -165.61786 | 32939 ft | 508 kts | 13° |
| 2026-04-30 06:35 | 69.71876 | -165.57580 | 32939 ft | 508 kts | 13° |
| 2026-04-30 06:36 | 69.78808 | -165.53309 | 32947 ft | 508 kts | 13° |
| 2026-04-30 06:36 | 69.85729 | -165.49014 | 32949 ft | 508 kts | 14° |
| 2026-04-30 06:37 | 69.92607 | -165.44719 | 32964 ft | 508 kts | 14° |
| 2026-04-30 06:37 | 69.99531 | -165.40364 | 32963 ft | 508 kts | 14° |
| 2026-04-30 06:38 | 70.06432 | -165.35995 | 32967 ft | 508 kts | 14° |
| 2026-04-30 06:38 | 70.13352 | -165.31585 | 32967 ft | 508 kts | 14° |
| 2026-04-30 06:39 | 70.20217 | -165.27178 | 32978 ft | 508 kts | 14° |
| 2026-04-30 06:39 | 70.27128 | -165.22715 | 32977 ft | 508 kts | 14° |
| 2026-04-30 06:40 | 70.34046 | -165.18214 | 32982 ft | 508 kts | 14° |
| 2026-04-30 06:40 | 70.40955 | -165.13686 | 32984 ft | 508 kts | 14° |
| 2026-04-30 06:41 | 70.47818 | -165.09157 | 32988 ft | 508 kts | 14° |
| 2026-04-30 06:41 | 70.54729 | -165.04566 | 32994 ft | 508 kts | 14° |
| 2026-04-30 06:42 | 70.61638 | -164.99944 | 32998 ft | 508 kts | 14° |
| 2026-04-30 06:42 | 70.68531 | -164.95300 | 33003 ft | 508 kts | 14° |
| 2026-04-30 06:43 | 70.75398 | -164.90640 | 33007 ft | 508 kts | 14° |
| 2026-04-30 06:43 | 70.82297 | -164.85927 | 33013 ft | 508 kts | 14° |
| 2026-04-30 06:44 | 70.89197 | -164.81180 | 33017 ft | 508 kts | 14° |
| 2026-04-30 06:44 | 70.96112 | -164.76389 | 33024 ft | 508 kts | 14° |
| 2026-04-30 06:45 | 71.03015 | -164.71570 | 33026 ft | 508 kts | 14° |
| 2026-04-30 06:45 | 71.09866 | -164.66754 | 33031 ft | 508 kts | 14° |
| 2026-04-30 06:46 | 71.16772 | -164.61863 | 33033 ft | 508 kts | 14° |
| 2026-04-30 06:46 | 71.23674 | -164.56939 | 33039 ft | 509 kts | 14° |
| 2026-04-30 06:47 | 71.30544 | -164.52005 | 33040 ft | 509 kts | 14° |
| 2026-04-30 06:47 | 71.37444 | -164.47010 | 33042 ft | 509 kts | 14° |
| 2026-04-30 06:48 | 71.44344 | -164.41979 | 33044 ft | 509 kts | 14° |
| 2026-04-30 06:48 | 71.51251 | -164.36906 | 33050 ft | 509 kts | 14° |
| 2026-04-30 06:49 | 71.58164 | -164.31791 | 33053 ft | 509 kts | 14° |
| 2026-04-30 06:49 | 71.65025 | -164.26676 | 33061 ft | 509 kts | 14° |
| 2026-04-30 06:50 | 71.71949 | -164.21478 | 33060 ft | 510 kts | 14° |
| 2026-04-30 06:50 | 71.78858 | -164.16249 | 33065 ft | 510 kts | 14° |
| 2026-04-30 06:51 | 71.85733 | -164.11006 | 33065 ft | 510 kts | 14° |
| 2026-04-30 06:51 | 71.92640 | -164.05700 | 33072 ft | 511 kts | 14° |
| 2026-04-30 06:52 | 71.99554 | -164.00351 | 33069 ft | 511 kts | 14° |
| 2026-04-30 06:52 | 72.06469 | -163.94961 | 33073 ft | 511 kts | 14° |
| 2026-04-30 06:53 | 72.13387 | -163.89530 | 33086 ft | 511 kts | 14° |
| 2026-04-30 06:53 | 72.20282 | -163.84075 | 33087 ft | 512 kts | 14° |
| 2026-04-30 06:54 | 72.27206 | -163.78553 | 33086 ft | 512 kts | 14° |
| 2026-04-30 06:54 | 72.34132 | -163.72985 | 33096 ft | 512 kts | 14° |
| 2026-04-30 06:55 | 72.41066 | -163.67367 | 33096 ft | 513 kts | 14° |
| 2026-04-30 06:55 | 72.47965 | -163.61738 | 33098 ft | 513 kts | 14° |
| 2026-04-30 06:56 | 72.54916 | -163.56020 | 33100 ft | 514 kts | 14° |
| 2026-04-30 06:56 | 72.61867 | -163.50253 | 33104 ft | 514 kts | 14° |
| 2026-04-30 06:57 | 72.68771 | -163.44480 | 33107 ft | 515 kts | 15° |
| 2026-04-30 06:57 | 72.75723 | -163.38622 | 33105 ft | 515 kts | 15° |
| 2026-04-30 06:58 | 72.82684 | -163.32709 | 33111 ft | 515 kts | 15° |
| 2026-04-30 06:58 | 72.89649 | -163.26743 | 33117 ft | 516 kts | 15° |
| 2026-04-30 06:59 | 72.96616 | -163.20727 | 33126 ft | 516 kts | 15° |
| 2026-04-30 06:59 | 73.03575 | -163.14668 | 33123 ft | 516 kts | 15° |
| 2026-04-30 07:00 | 73.10492 | -163.08596 | 33135 ft | 516 kts | 15° |
| 2026-04-30 07:00 | 73.17461 | -163.02429 | 33122 ft | 516 kts | 15° |
| 2026-04-30 07:01 | 73.24430 | -162.96209 | 33140 ft | 516 kts | 15° |
| 2026-04-30 07:01 | 73.31396 | -162.89942 | 33140 ft | 517 kts | 15° |
| 2026-04-30 07:02 | 73.38319 | -162.83659 | 33147 ft | 517 kts | 15° |
| 2026-04-30 07:02 | 73.45284 | -162.77284 | 33151 ft | 517 kts | 15° |
| 2026-04-30 07:03 | 73.52246 | -162.70860 | 33151 ft | 517 kts | 15° |
| 2026-04-30 07:03 | 73.59199 | -162.64388 | 33157 ft | 517 kts | 15° |
| 2026-04-30 07:04 | 73.66149 | -162.57863 | 33150 ft | 516 kts | 15° |
| 2026-04-30 07:04 | 73.73095 | -162.51287 | 33165 ft | 516 kts | 15° |
| 2026-04-30 07:05 | 73.83478 | -162.41349 | 33170 ft | 516 kts | 15° |
| 2026-04-30 07:05 | 73.90418 | -162.34636 | 33172 ft | 517 kts | 15° |
| 2026-04-30 07:06 | 73.97374 | -162.27848 | 33178 ft | 517 kts | 15° |
| 2026-04-30 07:06 | 74.04324 | -162.21005 | 33171 ft | 517 kts | 15° |
| 2026-04-30 07:07 | 74.11272 | -162.14104 | 33181 ft | 517 kts | 15° |
| 2026-04-30 07:07 | 74.18178 | -162.07186 | 33185 ft | 517 kts | 15° |
| 2026-04-30 07:08 | 74.25120 | -162.00169 | 33189 ft | 517 kts | 15° |
| 2026-04-30 07:08 | 74.32069 | -161.93080 | 33194 ft | 517 kts | 15° |
| 2026-04-30 07:09 | 74.39019 | -161.85928 | 33182 ft | 517 kts | 15° |
| 2026-04-30 07:09 | 74.45948 | -161.78731 | 33198 ft | 517 kts | 15° |
| 2026-04-30 07:10 | 74.52835 | -161.71515 | 33204 ft | 517 kts | 15° |
| 2026-04-30 07:10 | 74.59758 | -161.64194 | 33206 ft | 517 kts | 16° |
| 2026-04-30 07:11 | 74.66669 | -161.56820 | 33213 ft | 516 kts | 16° |
| 2026-04-30 07:11 | 74.73589 | -161.49368 | 33212 ft | 516 kts | 15° |
| 2026-04-30 07:12 | 74.80492 | -161.41865 | 33221 ft | 515 kts | 16° |
| 2026-04-30 07:12 | 74.87350 | -161.34343 | 33225 ft | 515 kts | 16° |
| 2026-04-30 07:13 | 74.94253 | -161.26701 | 33229 ft | 515 kts | 15° |
| 2026-04-30 07:13 | 75.01146 | -161.18998 | 33234 ft | 515 kts | 15° |
| 2026-04-30 07:14 | 75.08044 | -161.11217 | 33233 ft | 515 kts | 15° |
| 2026-04-30 07:14 | 75.14927 | -161.03380 | 33230 ft | 515 kts | 15° |
| 2026-04-30 07:15 | 75.21759 | -160.95527 | 33248 ft | 514 kts | 16° |
| 2026-04-30 07:15 | 75.28625 | -160.87561 | 33256 ft | 514 kts | 16° |
| 2026-04-30 07:16 | 75.35485 | -160.79523 | 33249 ft | 513 kts | 16° |
| 2026-04-30 07:16 | 75.41166 | -160.72810 | 33257 ft | 513 kts | 16° |
| 2026-04-30 07:17 | 75.49121 | -160.63320 | 33249 ft | 512 kts | 16° |
| 2026-04-30 07:18 | 75.58250 | -160.52296 | 33260 ft | 512 kts | 16° |
| 2026-04-30 07:18 | 75.65030 | -160.44016 | 33265 ft | 512 kts | 16° |
| 2026-04-30 07:19 | 75.71846 | -160.35611 | 33262 ft | 512 kts | 16° |
| 2026-04-30 07:19 | 75.78653 | -160.27133 | 33273 ft | 512 kts | 16° |
| 2026-04-30 07:20 | 75.85460 | -160.18574 | 33274 ft | 512 kts | 16° |
| 2026-04-30 07:20 | 75.92277 | -160.09915 | 33283 ft | 512 kts | 16° |
| 2026-04-30 07:21 | 75.99081 | -160.01194 | 33278 ft | 512 kts | 16° |
| 2026-04-30 07:21 | 76.05855 | -159.92459 | 33281 ft | 513 kts | 16° |
| 2026-04-30 07:22 | 76.16093 | -159.79173 | 33286 ft | 513 kts | 16° |
| 2026-04-30 07:22 | 76.22875 | -159.70256 | 33290 ft | 513 kts | 16° |
| 2026-04-30 07:23 | 76.29703 | -159.61179 | 33290 ft | 514 kts | 16° |
| 2026-04-30 07:23 | 76.36518 | -159.52024 | 33288 ft | 514 kts | 16° |
| 2026-04-30 07:24 | 76.43295 | -159.42826 | 33292 ft | 514 kts | 16° |
| 2026-04-30 07:24 | 76.50105 | -159.33489 | 33296 ft | 514 kts | 16° |
| 2026-04-30 07:25 | 76.56920 | -159.24046 | 33297 ft | 514 kts | 17° |
| 2026-04-30 07:25 | 76.63716 | -159.14532 | 33297 ft | 514 kts | 17° |
| 2026-04-30 07:26 | 76.70509 | -159.04920 | 33301 ft | 513 kts | 17° |
| 2026-04-30 07:26 | 76.77306 | -158.95200 | 33299 ft | 513 kts | 17° |
| 2026-04-30 07:27 | 76.84060 | -158.85441 | 33299 ft | 513 kts | 17° |
| 2026-04-30 07:27 | 76.90845 | -158.75529 | 33300 ft | 513 kts | 17° |
| 2026-04-30 07:28 | 76.97622 | -158.65523 | 33305 ft | 513 kts | 17° |
| 2026-04-30 07:28 | 77.04366 | -158.55458 | 33307 ft | 513 kts | 17° |
| 2026-04-30 07:29 | 77.11131 | -158.45251 | 33304 ft | 513 kts | 17° |
| 2026-04-30 07:29 | 77.17883 | -158.34952 | 33304 ft | 513 kts | 17° |
| 2026-04-30 07:30 | 77.27985 | -158.19333 | 33307 ft | 512 kts | 17° |
| 2026-04-30 07:31 | 77.34729 | -158.08760 | 33306 ft | 512 kts | 17° |
| 2026-04-30 07:31 | 77.41474 | -157.98067 | 33304 ft | 512 kts | 18° |
| 2026-04-30 07:32 | 77.48217 | -157.87258 | 33304 ft | 512 kts | 18° |
| 2026-04-30 07:32 | 77.54922 | -157.76388 | 33301 ft | 512 kts | 18° |
| 2026-04-30 07:33 | 77.61659 | -157.65341 | 33303 ft | 512 kts | 18° |
| 2026-04-30 07:33 | 77.68335 | -157.54271 | 33302 ft | 512 kts | 18° |
| 2026-04-30 07:34 | 77.75058 | -157.42995 | 33299 ft | 512 kts | 18° |
| 2026-04-30 07:34 | 77.81776 | -157.31596 | 33302 ft | 513 kts | 18° |
| 2026-04-30 07:35 | 77.88497 | -157.20061 | 33295 ft | 513 kts | 18° |
| 2026-04-30 07:35 | 77.95193 | -157.08439 | 33300 ft | 513 kts | 18° |
| 2026-04-30 07:36 | 78.01863 | -156.96727 | 33298 ft | 513 kts | 18° |
| 2026-04-30 07:36 | 78.08553 | -156.84836 | 33302 ft | 513 kts | 18° |
| 2026-04-30 07:37 | 78.15249 | -156.72795 | 33306 ft | 513 kts | 19° |
| 2026-04-30 07:37 | 78.21933 | -156.60633 | 33293 ft | 513 kts | 19° |
| 2026-04-30 07:38 | 78.28615 | -156.48331 | 33287 ft | 513 kts | 19° |
| 2026-04-30 07:38 | 78.35262 | -156.35944 | 33292 ft | 513 kts | 19° |
| 2026-04-30 07:39 | 78.41936 | -156.23357 | 33290 ft | 513 kts | 19° |
| 2026-04-30 07:39 | 78.48609 | -156.10616 | 33290 ft | 513 kts | 19° |
| 2026-04-30 07:40 | 78.55240 | -155.97798 | 33289 ft | 513 kts | 19° |
| 2026-04-30 07:40 | 78.61897 | -155.84772 | 33289 ft | 513 kts | 19° |
| 2026-04-30 07:41 | 78.68561 | -155.71569 | 33290 ft | 513 kts | 20° |
| 2026-04-30 07:41 | 78.75223 | -155.58204 | 33281 ft | 513 kts | 20° |
| 2026-04-30 07:42 | 78.81867 | -155.44706 | 33282 ft | 513 kts | 20° |
| 2026-04-30 07:42 | 78.88461 | -155.31139 | 33285 ft | 513 kts | 20° |
| 2026-04-30 07:43 | 78.95110 | -155.17285 | 33279 ft | 513 kts | 20° |
| 2026-04-30 07:43 | 79.01737 | -155.03300 | 33278 ft | 513 kts | 20° |
| 2026-04-30 07:44 | 79.08311 | -154.89247 | 33278 ft | 513 kts | 20° |
| 2026-04-30 07:44 | 79.14926 | -154.74920 | 33273 ft | 513 kts | 20° |
| 2026-04-30 07:45 | 79.21534 | -154.60421 | 33270 ft | 513 kts | 21° |
| 2026-04-30 07:45 | 79.28094 | -154.45837 | 33263 ft | 513 kts | 21° |
| 2026-04-30 07:46 | 79.34673 | -154.31020 | 33264 ft | 512 kts | 21° |
| 2026-04-30 07:46 | 79.41243 | -154.16021 | 33269 ft | 512 kts | 21° |
| 2026-04-30 07:47 | 79.47816 | -154.00818 | 33266 ft | 512 kts | 21° |
| 2026-04-30 07:47 | 79.54380 | -153.85429 | 33265 ft | 512 kts | 21° |
| 2026-04-30 07:48 | 79.60897 | -153.69942 | 33261 ft | 512 kts | 22° |
| 2026-04-30 07:48 | 79.67440 | -153.54178 | 33261 ft | 512 kts | 22° |
| 2026-04-30 07:49 | 79.73977 | -153.38212 | 33259 ft | 512 kts | 22° |
| 2026-04-30 07:49 | 79.80508 | -153.22040 | 33259 ft | 512 kts | 22° |
| 2026-04-30 07:50 | 79.86996 | -153.05750 | 33254 ft | 512 kts | 22° |
| 2026-04-30 07:50 | 79.93523 | -152.89132 | 33253 ft | 512 kts | 22° |
| 2026-04-30 07:51 | 80.00008 | -152.72386 | 33251 ft | 512 kts | 23° |
| 2026-04-30 07:51 | 80.06464 | -152.55476 | 33252 ft | 512 kts | 23° |
| 2026-04-30 07:52 | 80.12941 | -152.38270 | 33246 ft | 512 kts | 23° |
| 2026-04-30 07:52 | 80.19428 | -152.20788 | 33245 ft | 512 kts | 23° |
| 2026-04-30 07:53 | 80.25897 | -152.03100 | 33243 ft | 512 kts | 24° |
| 2026-04-30 07:53 | 80.32362 | -151.85164 | 33241 ft | 512 kts | 24° |
| 2026-04-30 07:54 | 80.38764 | -151.67140 | 33240 ft | 512 kts | 24° |
| 2026-04-30 07:54 | 80.45201 | -151.48748 | 33236 ft | 512 kts | 24° |
| 2026-04-30 07:55 | 80.51637 | -151.30085 | 33238 ft | 512 kts | 24° |
| 2026-04-30 07:55 | 80.58052 | -151.11205 | 33236 ft | 512 kts | 24° |
| 2026-04-30 07:56 | 80.64470 | -150.92025 | 33236 ft | 512 kts | 25° |
| 2026-04-30 07:56 | 80.70827 | -150.72739 | 33230 ft | 512 kts | 25° |
| 2026-04-30 07:57 | 80.77226 | -150.53024 | 33230 ft | 512 kts | 25° |
| 2026-04-30 07:57 | 80.83597 | -150.33093 | 33224 ft | 512 kts | 25° |
| 2026-04-30 07:58 | 80.89922 | -150.12996 | 33224 ft | 512 kts | 25° |
| 2026-04-30 07:58 | 80.96271 | -149.92506 | 33223 ft | 512 kts | 26° |
| 2026-04-30 07:59 | 81.02618 | -149.71701 | 33222 ft | 512 kts | 26° |
| 2026-04-30 07:59 | 81.08934 | -149.50660 | 33222 ft | 512 kts | 26° |
| 2026-04-30 08:00 | 81.18404 | -149.18483 | 33216 ft | 511 kts | 26° |
| 2026-04-30 08:00 | 81.24646 | -148.96840 | 33218 ft | 511 kts | 26° |
| 2026-04-30 08:01 | 81.30923 | -148.74722 | 33215 ft | 511 kts | 27° |
| 2026-04-30 08:01 | 81.37189 | -148.52280 | 33219 ft | 511 kts | 27° |
| 2026-04-30 08:02 | 81.46555 | -148.18030 | 33213 ft | 511 kts | 27° |
| 2026-04-30 08:03 | 81.58955 | -147.71341 | 33209 ft | 511 kts | 28° |
| 2026-04-30 08:04 | 81.65156 | -147.47397 | 33207 ft | 511 kts | 28° |
| 2026-04-30 08:04 | 81.71331 | -147.23139 | 33206 ft | 510 kts | 28° |
| 2026-04-30 08:05 | 81.77489 | -146.98531 | 33200 ft | 510 kts | 28° |
| 2026-04-30 08:05 | 81.83638 | -146.73532 | 33200 ft | 510 kts | 29° |
| 2026-04-30 08:06 | 81.89730 | -146.48327 | 33200 ft | 510 kts | 29° |
| 2026-04-30 08:06 | 81.95839 | -146.22602 | 33204 ft | 510 kts | 29° |
| 2026-04-30 08:07 | 82.01935 | -145.96474 | 33203 ft | 510 kts | 30° |
| 2026-04-30 08:07 | 82.06990 | -145.74451 | 33189 ft | 510 kts | 30° |
| 2026-04-30 08:08 | 82.13069 | -145.47525 | 33179 ft | 510 kts | 30° |
| 2026-04-30 08:08 | 82.19074 | -145.20442 | 33183 ft | 510 kts | 30° |
| 2026-04-30 08:09 | 82.25099 | -144.92767 | 33185 ft | 510 kts | 31° |
| 2026-04-30 08:09 | 82.31112 | -144.64631 | 33191 ft | 510 kts | 31° |